<?xml version="1.0" encoding="UTF-8" standalone="no" ?>
<gpx xmlns="http://www.topografix.com/GPX/1/1" xmlns:xsi="http://www.w3.org/2001/XMLSchema-instance" xsi:schemaLocation="http://www.topografix.com/GPX/1/1 http://www.topografix.com/GPX/1/1/gpx.xsd" version="1.1" creator="VisuGPX - https://www.visugpx.com">
  <metadata>
    <name>2022-04-28 12:38:58</name>
  </metadata>
  <trk>
    <name><![CDATA[2022-04-28 12:38:58]]></name>
    <trkseg>
      <trkpt lat="44.82614" lon="4.68023">
        <ele>158.75</ele>
        <time>2022-04-28T06:24:10Z</time>
      </trkpt>
      <trkpt lat="44.82613" lon="4.68025">
        <ele>158.27</ele>
        <time>2022-04-28T06:24:22Z</time>
      </trkpt>
      <trkpt lat="44.82617" lon="4.68021">
        <ele>161.64</ele>
        <time>2022-04-28T06:24:56Z</time>
      </trkpt>
      <trkpt lat="44.82616" lon="4.6802">
        <ele>157.79</ele>
        <time>2022-04-28T06:25:24Z</time>
      </trkpt>
      <trkpt lat="44.82616" lon="4.68021">
        <ele>153.95</ele>
        <time>2022-04-28T06:26:01Z</time>
      </trkpt>
      <trkpt lat="44.82618" lon="4.6802">
        <ele>152.51</ele>
        <time>2022-04-28T06:26:36Z</time>
      </trkpt>
      <trkpt lat="44.8262" lon="4.68019">
        <ele>153.47</ele>
        <time>2022-04-28T06:27:06Z</time>
      </trkpt>
      <trkpt lat="44.82617" lon="4.68022">
        <ele>155.39</ele>
        <time>2022-04-28T06:27:48Z</time>
      </trkpt>
      <trkpt lat="44.82616" lon="4.6802">
        <ele>158.27</ele>
        <time>2022-04-28T06:28:32Z</time>
      </trkpt>
      <trkpt lat="44.82616" lon="4.68017">
        <ele>158.75</ele>
        <time>2022-04-28T06:29:02Z</time>
      </trkpt>
      <trkpt lat="44.82618" lon="4.68018">
        <ele>156.83</ele>
        <time>2022-04-28T06:29:38Z</time>
      </trkpt>
      <trkpt lat="44.82616" lon="4.68017">
        <ele>155.87</ele>
        <time>2022-04-28T06:30:12Z</time>
      </trkpt>
      <trkpt lat="44.82619" lon="4.68013">
        <ele>154.43</ele>
        <time>2022-04-28T06:30:51Z</time>
      </trkpt>
      <trkpt lat="44.82619" lon="4.68012">
        <ele>155.87</ele>
        <time>2022-04-28T06:31:26Z</time>
      </trkpt>
      <trkpt lat="44.82618" lon="4.68016">
        <ele>156.35</ele>
        <time>2022-04-28T06:32:09Z</time>
      </trkpt>
      <trkpt lat="44.82617" lon="4.68019">
        <ele>154.43</ele>
        <time>2022-04-28T06:32:52Z</time>
      </trkpt>
      <trkpt lat="44.82619" lon="4.68017">
        <ele>154.43</ele>
        <time>2022-04-28T06:33:33Z</time>
      </trkpt>
      <trkpt lat="44.82619" lon="4.6802">
        <ele>154.43</ele>
        <time>2022-04-28T06:33:58Z</time>
      </trkpt>
      <trkpt lat="44.82617" lon="4.68022">
        <ele>154.43</ele>
        <time>2022-04-28T06:34:36Z</time>
      </trkpt>
      <trkpt lat="44.82616" lon="4.6802">
        <ele>152.51</ele>
        <time>2022-04-28T06:35:21Z</time>
      </trkpt>
      <trkpt lat="44.82613" lon="4.68022">
        <ele>148.66</ele>
        <time>2022-04-28T06:35:58Z</time>
      </trkpt>
      <trkpt lat="44.82618" lon="4.68021">
        <ele>153.47</ele>
        <time>2022-04-28T06:36:25Z</time>
      </trkpt>
      <trkpt lat="44.82618" lon="4.68018">
        <ele>156.35</ele>
        <time>2022-04-28T06:36:54Z</time>
      </trkpt>
      <trkpt lat="44.82619" lon="4.68019">
        <ele>155.87</ele>
        <time>2022-04-28T06:37:34Z</time>
      </trkpt>
      <trkpt lat="44.82616" lon="4.6802">
        <ele>161.64</ele>
        <time>2022-04-28T06:38:15Z</time>
      </trkpt>
      <trkpt lat="44.82614" lon="4.68024">
        <ele>159.72</ele>
        <time>2022-04-28T06:38:32Z</time>
      </trkpt>
      <trkpt lat="44.82613" lon="4.68026">
        <ele>160.2</ele>
        <time>2022-04-28T06:38:52Z</time>
      </trkpt>
      <trkpt lat="44.82612" lon="4.68024">
        <ele>157.79</ele>
        <time>2022-04-28T06:39:13Z</time>
      </trkpt>
      <trkpt lat="44.82611" lon="4.68023">
        <ele>160.2</ele>
        <time>2022-04-28T06:39:33Z</time>
      </trkpt>
      <trkpt lat="44.82611" lon="4.68023">
        <ele>161.64</ele>
        <time>2022-04-28T06:39:52Z</time>
      </trkpt>
      <trkpt lat="44.82615" lon="4.68026">
        <ele>161.16</ele>
        <time>2022-04-28T06:40:09Z</time>
      </trkpt>
      <trkpt lat="44.8262" lon="4.68031">
        <ele>163.08</ele>
        <time>2022-04-28T06:40:19Z</time>
      </trkpt>
      <trkpt lat="44.82637" lon="4.68042">
        <ele>164.04</ele>
        <time>2022-04-28T06:40:37Z</time>
      </trkpt>
      <trkpt lat="44.82641" lon="4.68031">
        <ele>168.37</ele>
        <time>2022-04-28T06:40:52Z</time>
      </trkpt>
      <trkpt lat="44.8264" lon="4.68011">
        <ele>173.66</ele>
        <time>2022-04-28T06:41:07Z</time>
      </trkpt>
      <trkpt lat="44.82641" lon="4.67989">
        <ele>171.25</ele>
        <time>2022-04-28T06:41:19Z</time>
      </trkpt>
      <trkpt lat="44.82638" lon="4.67965">
        <ele>166.93</ele>
        <time>2022-04-28T06:41:30Z</time>
      </trkpt>
      <trkpt lat="44.82638" lon="4.67961">
        <ele>166.45</ele>
        <time>2022-04-28T06:41:32Z</time>
      </trkpt>
      <trkpt lat="44.8263" lon="4.67935">
        <ele>169.33</ele>
        <time>2022-04-28T06:41:49Z</time>
      </trkpt>
      <trkpt lat="44.82625" lon="4.67902">
        <ele>176.06</ele>
        <time>2022-04-28T06:42:08Z</time>
      </trkpt>
      <trkpt lat="44.82624" lon="4.67864">
        <ele>175.1</ele>
        <time>2022-04-28T06:42:25Z</time>
      </trkpt>
      <trkpt lat="44.82625" lon="4.67836">
        <ele>174.62</ele>
        <time>2022-04-28T06:42:40Z</time>
      </trkpt>
      <trkpt lat="44.82627" lon="4.67812">
        <ele>175.1</ele>
        <time>2022-04-28T06:42:53Z</time>
      </trkpt>
      <trkpt lat="44.82632" lon="4.67778">
        <ele>171.25</ele>
        <time>2022-04-28T06:43:09Z</time>
      </trkpt>
      <trkpt lat="44.82633" lon="4.67775">
        <ele>172.21</ele>
        <time>2022-04-28T06:43:12Z</time>
      </trkpt>
      <trkpt lat="44.8265" lon="4.67764">
        <ele>177.02</ele>
        <time>2022-04-28T06:43:27Z</time>
      </trkpt>
      <trkpt lat="44.82674" lon="4.67746">
        <ele>171.25</ele>
        <time>2022-04-28T06:43:43Z</time>
      </trkpt>
      <trkpt lat="44.82698" lon="4.67728">
        <ele>171.25</ele>
        <time>2022-04-28T06:44:00Z</time>
      </trkpt>
      <trkpt lat="44.82723" lon="4.67713">
        <ele>173.17</ele>
        <time>2022-04-28T06:44:18Z</time>
      </trkpt>
      <trkpt lat="44.82747" lon="4.677">
        <ele>170.29</ele>
        <time>2022-04-28T06:44:37Z</time>
      </trkpt>
      <trkpt lat="44.8277" lon="4.67688">
        <ele>168.85</ele>
        <time>2022-04-28T06:44:55Z</time>
      </trkpt>
      <trkpt lat="44.82789" lon="4.67676">
        <ele>168.37</ele>
        <time>2022-04-28T06:45:12Z</time>
      </trkpt>
      <trkpt lat="44.82812" lon="4.67667">
        <ele>169.81</ele>
        <time>2022-04-28T06:45:29Z</time>
      </trkpt>
      <trkpt lat="44.82832" lon="4.67655">
        <ele>170.77</ele>
        <time>2022-04-28T06:45:43Z</time>
      </trkpt>
      <trkpt lat="44.82849" lon="4.67633">
        <ele>175.58</ele>
        <time>2022-04-28T06:45:59Z</time>
      </trkpt>
      <trkpt lat="44.82865" lon="4.6762">
        <ele>178.46</ele>
        <time>2022-04-28T06:46:13Z</time>
      </trkpt>
      <trkpt lat="44.82884" lon="4.67616">
        <ele>179.42</ele>
        <time>2022-04-28T06:46:25Z</time>
      </trkpt>
      <trkpt lat="44.82891" lon="4.67618">
        <ele>178.46</ele>
        <time>2022-04-28T06:46:30Z</time>
      </trkpt>
      <trkpt lat="44.82905" lon="4.67649">
        <ele>176.54</ele>
        <time>2022-04-28T06:46:48Z</time>
      </trkpt>
      <trkpt lat="44.82922" lon="4.6768">
        <ele>173.17</ele>
        <time>2022-04-28T06:47:05Z</time>
      </trkpt>
      <trkpt lat="44.82941" lon="4.67708">
        <ele>171.73</ele>
        <time>2022-04-28T06:47:23Z</time>
      </trkpt>
      <trkpt lat="44.82956" lon="4.67744">
        <ele>167.89</ele>
        <time>2022-04-28T06:47:42Z</time>
      </trkpt>
      <trkpt lat="44.82963" lon="4.67764">
        <ele>166.93</ele>
        <time>2022-04-28T06:47:55Z</time>
      </trkpt>
      <trkpt lat="44.82955" lon="4.67806">
        <ele>168.37</ele>
        <time>2022-04-28T06:48:16Z</time>
      </trkpt>
      <trkpt lat="44.82954" lon="4.67847">
        <ele>164.04</ele>
        <time>2022-04-28T06:48:34Z</time>
      </trkpt>
      <trkpt lat="44.82955" lon="4.67892">
        <ele>157.31</ele>
        <time>2022-04-28T06:48:54Z</time>
      </trkpt>
      <trkpt lat="44.82957" lon="4.67929">
        <ele>156.35</ele>
        <time>2022-04-28T06:49:13Z</time>
      </trkpt>
      <trkpt lat="44.82955" lon="4.67971">
        <ele>158.75</ele>
        <time>2022-04-28T06:49:34Z</time>
      </trkpt>
      <trkpt lat="44.82955" lon="4.67985">
        <ele>158.27</ele>
        <time>2022-04-28T06:49:40Z</time>
      </trkpt>
      <trkpt lat="44.82964" lon="4.68021">
        <ele>159.24</ele>
        <time>2022-04-28T06:50:00Z</time>
      </trkpt>
      <trkpt lat="44.82966" lon="4.6806">
        <ele>161.16</ele>
        <time>2022-04-28T06:50:20Z</time>
      </trkpt>
      <trkpt lat="44.82972" lon="4.68093">
        <ele>160.2</ele>
        <time>2022-04-28T06:50:37Z</time>
      </trkpt>
      <trkpt lat="44.82974" lon="4.6812">
        <ele>165</ele>
        <time>2022-04-28T06:50:56Z</time>
      </trkpt>
      <trkpt lat="44.82974" lon="4.68125">
        <ele>165</ele>
        <time>2022-04-28T06:51:11Z</time>
      </trkpt>
      <trkpt lat="44.82976" lon="4.68137">
        <ele>166.93</ele>
        <time>2022-04-28T06:51:26Z</time>
      </trkpt>
      <trkpt lat="44.82977" lon="4.68149">
        <ele>166.45</ele>
        <time>2022-04-28T06:51:33Z</time>
      </trkpt>
      <trkpt lat="44.8298" lon="4.68184">
        <ele>166.93</ele>
        <time>2022-04-28T06:51:52Z</time>
      </trkpt>
      <trkpt lat="44.82981" lon="4.68192">
        <ele>165.96</ele>
        <time>2022-04-28T06:51:56Z</time>
      </trkpt>
      <trkpt lat="44.82984" lon="4.68194">
        <ele>164.52</ele>
        <time>2022-04-28T06:51:59Z</time>
      </trkpt>
      <trkpt lat="44.82998" lon="4.68217">
        <ele>160.2</ele>
        <time>2022-04-28T06:52:18Z</time>
      </trkpt>
      <trkpt lat="44.83005" lon="4.68224">
        <ele>164.52</ele>
        <time>2022-04-28T06:52:32Z</time>
      </trkpt>
      <trkpt lat="44.83008" lon="4.68223">
        <ele>170.29</ele>
        <time>2022-04-28T06:52:47Z</time>
      </trkpt>
      <trkpt lat="44.8302" lon="4.68224">
        <ele>173.17</ele>
        <time>2022-04-28T06:53:03Z</time>
      </trkpt>
      <trkpt lat="44.83029" lon="4.68231">
        <ele>177.02</ele>
        <time>2022-04-28T06:53:21Z</time>
      </trkpt>
      <trkpt lat="44.83037" lon="4.68238">
        <ele>177.5</ele>
        <time>2022-04-28T06:53:36Z</time>
      </trkpt>
      <trkpt lat="44.8304" lon="4.68236">
        <ele>181.83</ele>
        <time>2022-04-28T06:53:49Z</time>
      </trkpt>
      <trkpt lat="44.83046" lon="4.68238">
        <ele>185.19</ele>
        <time>2022-04-28T06:54:03Z</time>
      </trkpt>
      <trkpt lat="44.83048" lon="4.6824">
        <ele>188.08</ele>
        <time>2022-04-28T06:54:18Z</time>
      </trkpt>
      <trkpt lat="44.83051" lon="4.68246">
        <ele>191.92</ele>
        <time>2022-04-28T06:54:32Z</time>
      </trkpt>
      <trkpt lat="44.83058" lon="4.68251">
        <ele>194.32</ele>
        <time>2022-04-28T06:54:47Z</time>
      </trkpt>
      <trkpt lat="44.83064" lon="4.68257">
        <ele>196.73</ele>
        <time>2022-04-28T06:55:02Z</time>
      </trkpt>
      <trkpt lat="44.83067" lon="4.68259">
        <ele>202.01</ele>
        <time>2022-04-28T06:55:17Z</time>
      </trkpt>
      <trkpt lat="44.83074" lon="4.68259">
        <ele>203.94</ele>
        <time>2022-04-28T06:55:32Z</time>
      </trkpt>
      <trkpt lat="44.83078" lon="4.68264">
        <ele>206.34</ele>
        <time>2022-04-28T06:55:46Z</time>
      </trkpt>
      <trkpt lat="44.83081" lon="4.68272">
        <ele>208.26</ele>
        <time>2022-04-28T06:56:00Z</time>
      </trkpt>
      <trkpt lat="44.83087" lon="4.6827">
        <ele>211.15</ele>
        <time>2022-04-28T06:56:14Z</time>
      </trkpt>
      <trkpt lat="44.83094" lon="4.68273">
        <ele>211.63</ele>
        <time>2022-04-28T06:56:30Z</time>
      </trkpt>
      <trkpt lat="44.83098" lon="4.68276">
        <ele>212.59</ele>
        <time>2022-04-28T06:56:42Z</time>
      </trkpt>
      <trkpt lat="44.831" lon="4.68278">
        <ele>215.95</ele>
        <time>2022-04-28T06:56:56Z</time>
      </trkpt>
      <trkpt lat="44.83102" lon="4.68283">
        <ele>219.8</ele>
        <time>2022-04-28T06:57:12Z</time>
      </trkpt>
      <trkpt lat="44.83104" lon="4.68285">
        <ele>224.12</ele>
        <time>2022-04-28T06:57:30Z</time>
      </trkpt>
      <trkpt lat="44.83113" lon="4.68279">
        <ele>227.01</ele>
        <time>2022-04-28T06:57:46Z</time>
      </trkpt>
      <trkpt lat="44.83116" lon="4.68289">
        <ele>227.01</ele>
        <time>2022-04-28T06:57:59Z</time>
      </trkpt>
      <trkpt lat="44.8312" lon="4.68295">
        <ele>229.89</ele>
        <time>2022-04-28T06:58:17Z</time>
      </trkpt>
      <trkpt lat="44.83127" lon="4.6831">
        <ele>233.74</ele>
        <time>2022-04-28T06:58:37Z</time>
      </trkpt>
      <trkpt lat="44.83132" lon="4.68324">
        <ele>235.66</ele>
        <time>2022-04-28T06:58:58Z</time>
      </trkpt>
      <trkpt lat="44.83135" lon="4.68334">
        <ele>238.54</ele>
        <time>2022-04-28T06:59:18Z</time>
      </trkpt>
      <trkpt lat="44.83141" lon="4.68328">
        <ele>241.91</ele>
        <time>2022-04-28T06:59:40Z</time>
      </trkpt>
      <trkpt lat="44.83149" lon="4.68321">
        <ele>245.27</ele>
        <time>2022-04-28T06:59:56Z</time>
      </trkpt>
      <trkpt lat="44.83162" lon="4.68317">
        <ele>248.64</ele>
        <time>2022-04-28T07:00:13Z</time>
      </trkpt>
      <trkpt lat="44.83176" lon="4.68328">
        <ele>252.96</ele>
        <time>2022-04-28T07:00:34Z</time>
      </trkpt>
      <trkpt lat="44.83179" lon="4.68341">
        <ele>256.33</ele>
        <time>2022-04-28T07:00:51Z</time>
      </trkpt>
      <trkpt lat="44.83186" lon="4.68354">
        <ele>259.69</ele>
        <time>2022-04-28T07:01:11Z</time>
      </trkpt>
      <trkpt lat="44.83196" lon="4.68367">
        <ele>263.06</ele>
        <time>2022-04-28T07:01:30Z</time>
      </trkpt>
      <trkpt lat="44.83203" lon="4.68381">
        <ele>266.42</ele>
        <time>2022-04-28T07:01:49Z</time>
      </trkpt>
      <trkpt lat="44.83211" lon="4.68387">
        <ele>268.83</ele>
        <time>2022-04-28T07:02:06Z</time>
      </trkpt>
      <trkpt lat="44.83222" lon="4.68403">
        <ele>271.23</ele>
        <time>2022-04-28T07:02:27Z</time>
      </trkpt>
      <trkpt lat="44.83228" lon="4.68419">
        <ele>274.11</ele>
        <time>2022-04-28T07:02:46Z</time>
      </trkpt>
      <trkpt lat="44.83236" lon="4.68433">
        <ele>275.07</ele>
        <time>2022-04-28T07:03:03Z</time>
      </trkpt>
      <trkpt lat="44.83246" lon="4.6845">
        <ele>279.4</ele>
        <time>2022-04-28T07:03:22Z</time>
      </trkpt>
      <trkpt lat="44.83257" lon="4.68463">
        <ele>283.73</ele>
        <time>2022-04-28T07:03:41Z</time>
      </trkpt>
      <trkpt lat="44.83269" lon="4.68479">
        <ele>288.53</ele>
        <time>2022-04-28T07:04:01Z</time>
      </trkpt>
      <trkpt lat="44.8327" lon="4.68498">
        <ele>286.13</ele>
        <time>2022-04-28T07:04:19Z</time>
      </trkpt>
      <trkpt lat="44.83267" lon="4.68505">
        <ele>285.65</ele>
        <time>2022-04-28T07:04:37Z</time>
      </trkpt>
      <trkpt lat="44.83264" lon="4.68513">
        <ele>285.17</ele>
        <time>2022-04-28T07:04:49Z</time>
      </trkpt>
      <trkpt lat="44.83262" lon="4.68514">
        <ele>285.17</ele>
        <time>2022-04-28T07:04:51Z</time>
      </trkpt>
      <trkpt lat="44.83258" lon="4.68519">
        <ele>283.25</ele>
        <time>2022-04-28T07:04:58Z</time>
      </trkpt>
      <trkpt lat="44.83247" lon="4.68542">
        <ele>281.32</ele>
        <time>2022-04-28T07:05:17Z</time>
      </trkpt>
      <trkpt lat="44.83236" lon="4.68561">
        <ele>282.77</ele>
        <time>2022-04-28T07:05:34Z</time>
      </trkpt>
      <trkpt lat="44.83225" lon="4.68582">
        <ele>285.65</ele>
        <time>2022-04-28T07:05:52Z</time>
      </trkpt>
      <trkpt lat="44.83214" lon="4.68605">
        <ele>288.53</ele>
        <time>2022-04-28T07:06:09Z</time>
      </trkpt>
      <trkpt lat="44.83204" lon="4.68628">
        <ele>290.46</ele>
        <time>2022-04-28T07:06:27Z</time>
      </trkpt>
      <trkpt lat="44.83197" lon="4.68653">
        <ele>291.42</ele>
        <time>2022-04-28T07:06:44Z</time>
      </trkpt>
      <trkpt lat="44.83196" lon="4.68675">
        <ele>292.38</ele>
        <time>2022-04-28T07:07:03Z</time>
      </trkpt>
      <trkpt lat="44.83194" lon="4.68678">
        <ele>292.86</ele>
        <time>2022-04-28T07:07:33Z</time>
      </trkpt>
      <trkpt lat="44.83187" lon="4.68712">
        <ele>293.34</ele>
        <time>2022-04-28T07:07:53Z</time>
      </trkpt>
      <trkpt lat="44.83176" lon="4.68744">
        <ele>295.26</ele>
        <time>2022-04-28T07:08:13Z</time>
      </trkpt>
      <trkpt lat="44.83173" lon="4.68771">
        <ele>298.15</ele>
        <time>2022-04-28T07:08:29Z</time>
      </trkpt>
      <trkpt lat="44.83173" lon="4.68774">
        <ele>298.63</ele>
        <time>2022-04-28T07:08:31Z</time>
      </trkpt>
      <trkpt lat="44.83173" lon="4.68778">
        <ele>299.11</ele>
        <time>2022-04-28T07:08:34Z</time>
      </trkpt>
      <trkpt lat="44.83176" lon="4.68794">
        <ele>300.07</ele>
        <time>2022-04-28T07:08:44Z</time>
      </trkpt>
      <trkpt lat="44.83189" lon="4.68812">
        <ele>301.51</ele>
        <time>2022-04-28T07:09:01Z</time>
      </trkpt>
      <trkpt lat="44.83196" lon="4.68816">
        <ele>301.51</ele>
        <time>2022-04-28T07:09:08Z</time>
      </trkpt>
      <trkpt lat="44.83214" lon="4.68809">
        <ele>302.47</ele>
        <time>2022-04-28T07:09:25Z</time>
      </trkpt>
      <trkpt lat="44.83237" lon="4.68805">
        <ele>300.55</ele>
        <time>2022-04-28T07:09:43Z</time>
      </trkpt>
      <trkpt lat="44.83239" lon="4.68806">
        <ele>300.55</ele>
        <time>2022-04-28T07:09:45Z</time>
      </trkpt>
      <trkpt lat="44.83263" lon="4.6882">
        <ele>299.59</ele>
        <time>2022-04-28T07:10:04Z</time>
      </trkpt>
      <trkpt lat="44.83284" lon="4.68843">
        <ele>299.11</ele>
        <time>2022-04-28T07:10:22Z</time>
      </trkpt>
      <trkpt lat="44.83286" lon="4.68846">
        <ele>299.59</ele>
        <time>2022-04-28T07:10:25Z</time>
      </trkpt>
      <trkpt lat="44.8331" lon="4.68849">
        <ele>302.95</ele>
        <time>2022-04-28T07:10:44Z</time>
      </trkpt>
      <trkpt lat="44.83332" lon="4.6884">
        <ele>308.24</ele>
        <time>2022-04-28T07:11:04Z</time>
      </trkpt>
      <trkpt lat="44.83353" lon="4.68835">
        <ele>312.09</ele>
        <time>2022-04-28T07:11:23Z</time>
      </trkpt>
      <trkpt lat="44.83368" lon="4.6883">
        <ele>314.01</ele>
        <time>2022-04-28T07:11:34Z</time>
      </trkpt>
      <trkpt lat="44.8339" lon="4.68817">
        <ele>314.01</ele>
        <time>2022-04-28T07:11:50Z</time>
      </trkpt>
      <trkpt lat="44.83414" lon="4.68808">
        <ele>314.97</ele>
        <time>2022-04-28T07:12:08Z</time>
      </trkpt>
      <trkpt lat="44.83438" lon="4.68791">
        <ele>316.41</ele>
        <time>2022-04-28T07:12:28Z</time>
      </trkpt>
      <trkpt lat="44.83465" lon="4.68775">
        <ele>318.33</ele>
        <time>2022-04-28T07:12:48Z</time>
      </trkpt>
      <trkpt lat="44.83486" lon="4.68754">
        <ele>320.26</ele>
        <time>2022-04-28T07:13:06Z</time>
      </trkpt>
      <trkpt lat="44.83496" lon="4.68744">
        <ele>320.26</ele>
        <time>2022-04-28T07:13:15Z</time>
      </trkpt>
      <trkpt lat="44.83514" lon="4.68713">
        <ele>321.22</ele>
        <time>2022-04-28T07:13:35Z</time>
      </trkpt>
      <trkpt lat="44.83525" lon="4.6868">
        <ele>322.66</ele>
        <time>2022-04-28T07:13:55Z</time>
      </trkpt>
      <trkpt lat="44.83533" lon="4.68666">
        <ele>323.62</ele>
        <time>2022-04-28T07:14:04Z</time>
      </trkpt>
      <trkpt lat="44.83546" lon="4.68665">
        <ele>328.43</ele>
        <time>2022-04-28T07:14:19Z</time>
      </trkpt>
      <trkpt lat="44.83556" lon="4.68666">
        <ele>330.35</ele>
        <time>2022-04-28T07:14:28Z</time>
      </trkpt>
      <trkpt lat="44.83587" lon="4.68669">
        <ele>331.31</ele>
        <time>2022-04-28T07:14:49Z</time>
      </trkpt>
      <trkpt lat="44.83609" lon="4.68673">
        <ele>337.56</ele>
        <time>2022-04-28T07:15:08Z</time>
      </trkpt>
      <trkpt lat="44.83622" lon="4.68679">
        <ele>341.41</ele>
        <time>2022-04-28T07:15:19Z</time>
      </trkpt>
      <trkpt lat="44.83629" lon="4.68694">
        <ele>344.77</ele>
        <time>2022-04-28T07:15:32Z</time>
      </trkpt>
      <trkpt lat="44.83643" lon="4.68716">
        <ele>338.04</ele>
        <time>2022-04-28T07:15:47Z</time>
      </trkpt>
      <trkpt lat="44.83652" lon="4.68721">
        <ele>332.27</ele>
        <time>2022-04-28T07:16:07Z</time>
      </trkpt>
      <trkpt lat="44.83654" lon="4.68738">
        <ele>335.16</ele>
        <time>2022-04-28T07:16:21Z</time>
      </trkpt>
      <trkpt lat="44.83664" lon="4.68756">
        <ele>339.48</ele>
        <time>2022-04-28T07:16:35Z</time>
      </trkpt>
      <trkpt lat="44.83676" lon="4.68772">
        <ele>341.41</ele>
        <time>2022-04-28T07:16:49Z</time>
      </trkpt>
      <trkpt lat="44.83699" lon="4.68784">
        <ele>340.92</ele>
        <time>2022-04-28T07:17:09Z</time>
      </trkpt>
      <trkpt lat="44.83727" lon="4.68798">
        <ele>338.04</ele>
        <time>2022-04-28T07:17:29Z</time>
      </trkpt>
      <trkpt lat="44.83745" lon="4.68819">
        <ele>337.08</ele>
        <time>2022-04-28T07:17:46Z</time>
      </trkpt>
      <trkpt lat="44.83762" lon="4.68845">
        <ele>337.56</ele>
        <time>2022-04-28T07:18:04Z</time>
      </trkpt>
      <trkpt lat="44.83765" lon="4.68847">
        <ele>337.56</ele>
        <time>2022-04-28T07:18:06Z</time>
      </trkpt>
      <trkpt lat="44.8378" lon="4.68868">
        <ele>336.12</ele>
        <time>2022-04-28T07:18:22Z</time>
      </trkpt>
      <trkpt lat="44.83781" lon="4.68871">
        <ele>336.12</ele>
        <time>2022-04-28T07:18:24Z</time>
      </trkpt>
      <trkpt lat="44.83782" lon="4.68901">
        <ele>336.6</ele>
        <time>2022-04-28T07:18:42Z</time>
      </trkpt>
      <trkpt lat="44.83782" lon="4.68939">
        <ele>336.12</ele>
        <time>2022-04-28T07:19:01Z</time>
      </trkpt>
      <trkpt lat="44.83787" lon="4.68976">
        <ele>333.71</ele>
        <time>2022-04-28T07:19:21Z</time>
      </trkpt>
      <trkpt lat="44.83791" lon="4.6901">
        <ele>334.2</ele>
        <time>2022-04-28T07:19:39Z</time>
      </trkpt>
      <trkpt lat="44.83791" lon="4.69012">
        <ele>334.2</ele>
        <time>2022-04-28T07:19:40Z</time>
      </trkpt>
      <trkpt lat="44.83792" lon="4.69047">
        <ele>334.68</ele>
        <time>2022-04-28T07:19:57Z</time>
      </trkpt>
      <trkpt lat="44.83794" lon="4.69078">
        <ele>333.71</ele>
        <time>2022-04-28T07:20:14Z</time>
      </trkpt>
      <trkpt lat="44.83788" lon="4.69108">
        <ele>335.16</ele>
        <time>2022-04-28T07:20:32Z</time>
      </trkpt>
      <trkpt lat="44.83776" lon="4.69134">
        <ele>333.71</ele>
        <time>2022-04-28T07:20:48Z</time>
      </trkpt>
      <trkpt lat="44.83766" lon="4.69164">
        <ele>336.6</ele>
        <time>2022-04-28T07:21:04Z</time>
      </trkpt>
      <trkpt lat="44.83767" lon="4.69198">
        <ele>340.92</ele>
        <time>2022-04-28T07:21:22Z</time>
      </trkpt>
      <trkpt lat="44.83768" lon="4.69206">
        <ele>341.41</ele>
        <time>2022-04-28T07:21:27Z</time>
      </trkpt>
      <trkpt lat="44.83779" lon="4.69222">
        <ele>342.37</ele>
        <time>2022-04-28T07:21:38Z</time>
      </trkpt>
      <trkpt lat="44.83782" lon="4.69227">
        <ele>342.37</ele>
        <time>2022-04-28T07:21:42Z</time>
      </trkpt>
      <trkpt lat="44.83799" lon="4.69252">
        <ele>343.81</ele>
        <time>2022-04-28T07:22:01Z</time>
      </trkpt>
      <trkpt lat="44.83807" lon="4.69267">
        <ele>341.89</ele>
        <time>2022-04-28T07:22:13Z</time>
      </trkpt>
      <trkpt lat="44.83809" lon="4.69281">
        <ele>339.96</ele>
        <time>2022-04-28T07:22:21Z</time>
      </trkpt>
      <trkpt lat="44.83809" lon="4.69285">
        <ele>339.48</ele>
        <time>2022-04-28T07:22:23Z</time>
      </trkpt>
      <trkpt lat="44.83806" lon="4.69298">
        <ele>337.08</ele>
        <time>2022-04-28T07:22:31Z</time>
      </trkpt>
      <trkpt lat="44.83798" lon="4.69329">
        <ele>331.79</ele>
        <time>2022-04-28T07:22:48Z</time>
      </trkpt>
      <trkpt lat="44.838" lon="4.69333">
        <ele>331.79</ele>
        <time>2022-04-28T07:22:57Z</time>
      </trkpt>
      <trkpt lat="44.83805" lon="4.69338">
        <ele>331.31</ele>
        <time>2022-04-28T07:23:07Z</time>
      </trkpt>
      <trkpt lat="44.83804" lon="4.69339">
        <ele>330.35</ele>
        <time>2022-04-28T07:23:10Z</time>
      </trkpt>
      <trkpt lat="44.83806" lon="4.69353">
        <ele>329.87</ele>
        <time>2022-04-28T07:23:23Z</time>
      </trkpt>
      <trkpt lat="44.83814" lon="4.69363">
        <ele>333.71</ele>
        <time>2022-04-28T07:23:41Z</time>
      </trkpt>
      <trkpt lat="44.83825" lon="4.69369">
        <ele>334.68</ele>
        <time>2022-04-28T07:23:57Z</time>
      </trkpt>
      <trkpt lat="44.83835" lon="4.69379">
        <ele>331.31</ele>
        <time>2022-04-28T07:24:15Z</time>
      </trkpt>
      <trkpt lat="44.83839" lon="4.69389">
        <ele>329.87</ele>
        <time>2022-04-28T07:24:30Z</time>
      </trkpt>
      <trkpt lat="44.83843" lon="4.69403">
        <ele>327.47</ele>
        <time>2022-04-28T07:24:43Z</time>
      </trkpt>
      <trkpt lat="44.83852" lon="4.69417">
        <ele>323.62</ele>
        <time>2022-04-28T07:25:00Z</time>
      </trkpt>
      <trkpt lat="44.83857" lon="4.6943">
        <ele>323.62</ele>
        <time>2022-04-28T07:25:12Z</time>
      </trkpt>
      <trkpt lat="44.83866" lon="4.69444">
        <ele>320.74</ele>
        <time>2022-04-28T07:25:26Z</time>
      </trkpt>
      <trkpt lat="44.83872" lon="4.69459">
        <ele>317.37</ele>
        <time>2022-04-28T07:25:40Z</time>
      </trkpt>
      <trkpt lat="44.83879" lon="4.69473">
        <ele>315.45</ele>
        <time>2022-04-28T07:25:54Z</time>
      </trkpt>
      <trkpt lat="44.83881" lon="4.69476">
        <ele>314.97</ele>
        <time>2022-04-28T07:25:58Z</time>
      </trkpt>
      <trkpt lat="44.83888" lon="4.69496">
        <ele>312.09</ele>
        <time>2022-04-28T07:26:15Z</time>
      </trkpt>
      <trkpt lat="44.83892" lon="4.6951">
        <ele>308.24</ele>
        <time>2022-04-28T07:26:29Z</time>
      </trkpt>
      <trkpt lat="44.83899" lon="4.69528">
        <ele>305.84</ele>
        <time>2022-04-28T07:26:46Z</time>
      </trkpt>
      <trkpt lat="44.83903" lon="4.69547">
        <ele>304.39</ele>
        <time>2022-04-28T07:27:00Z</time>
      </trkpt>
      <trkpt lat="44.83904" lon="4.6957">
        <ele>301.51</ele>
        <time>2022-04-28T07:27:14Z</time>
      </trkpt>
      <trkpt lat="44.83901" lon="4.6959">
        <ele>296.22</ele>
        <time>2022-04-28T07:27:32Z</time>
      </trkpt>
      <trkpt lat="44.83896" lon="4.69609">
        <ele>290.94</ele>
        <time>2022-04-28T07:27:49Z</time>
      </trkpt>
      <trkpt lat="44.83889" lon="4.69625">
        <ele>288.05</ele>
        <time>2022-04-28T07:28:03Z</time>
      </trkpt>
      <trkpt lat="44.83875" lon="4.69635">
        <ele>282.77</ele>
        <time>2022-04-28T07:28:17Z</time>
      </trkpt>
      <trkpt lat="44.83871" lon="4.69652">
        <ele>279.88</ele>
        <time>2022-04-28T07:28:34Z</time>
      </trkpt>
      <trkpt lat="44.83861" lon="4.69669">
        <ele>275.56</ele>
        <time>2022-04-28T07:28:50Z</time>
      </trkpt>
      <trkpt lat="44.83851" lon="4.69681">
        <ele>266.9</ele>
        <time>2022-04-28T07:29:05Z</time>
      </trkpt>
      <trkpt lat="44.83849" lon="4.69692">
        <ele>264.98</ele>
        <time>2022-04-28T07:29:19Z</time>
      </trkpt>
      <trkpt lat="44.83846" lon="4.69705">
        <ele>263.06</ele>
        <time>2022-04-28T07:29:34Z</time>
      </trkpt>
      <trkpt lat="44.83842" lon="4.69719">
        <ele>258.25</ele>
        <time>2022-04-28T07:29:50Z</time>
      </trkpt>
      <trkpt lat="44.83837" lon="4.69735">
        <ele>255.85</ele>
        <time>2022-04-28T07:30:07Z</time>
      </trkpt>
      <trkpt lat="44.83837" lon="4.69736">
        <ele>255.85</ele>
        <time>2022-04-28T07:30:08Z</time>
      </trkpt>
      <trkpt lat="44.83836" lon="4.69745">
        <ele>253.93</ele>
        <time>2022-04-28T07:30:23Z</time>
      </trkpt>
      <trkpt lat="44.83839" lon="4.6975">
        <ele>252.96</ele>
        <time>2022-04-28T07:30:38Z</time>
      </trkpt>
      <trkpt lat="44.83844" lon="4.69763">
        <ele>250.08</ele>
        <time>2022-04-28T07:30:52Z</time>
      </trkpt>
      <trkpt lat="44.83843" lon="4.69774">
        <ele>245.27</ele>
        <time>2022-04-28T07:31:04Z</time>
      </trkpt>
      <trkpt lat="44.83844" lon="4.69785">
        <ele>241.91</ele>
        <time>2022-04-28T07:31:20Z</time>
      </trkpt>
      <trkpt lat="44.83846" lon="4.698">
        <ele>239.02</ele>
        <time>2022-04-28T07:31:35Z</time>
      </trkpt>
      <trkpt lat="44.83844" lon="4.69815">
        <ele>233.74</ele>
        <time>2022-04-28T07:31:49Z</time>
      </trkpt>
      <trkpt lat="44.83842" lon="4.69831">
        <ele>230.37</ele>
        <time>2022-04-28T07:32:04Z</time>
      </trkpt>
      <trkpt lat="44.83839" lon="4.69833">
        <ele>228.45</ele>
        <time>2022-04-28T07:32:20Z</time>
      </trkpt>
      <trkpt lat="44.83833" lon="4.69836">
        <ele>219.8</ele>
        <time>2022-04-28T07:32:51Z</time>
      </trkpt>
      <trkpt lat="44.83827" lon="4.69858">
        <ele>215.47</ele>
        <time>2022-04-28T07:33:07Z</time>
      </trkpt>
      <trkpt lat="44.83826" lon="4.69884">
        <ele>214.51</ele>
        <time>2022-04-28T07:33:23Z</time>
      </trkpt>
      <trkpt lat="44.83818" lon="4.69913">
        <ele>213.55</ele>
        <time>2022-04-28T07:33:41Z</time>
      </trkpt>
      <trkpt lat="44.83803" lon="4.69933">
        <ele>215.47</ele>
        <time>2022-04-28T07:33:59Z</time>
      </trkpt>
      <trkpt lat="44.83793" lon="4.69948">
        <ele>216.91</ele>
        <time>2022-04-28T07:34:15Z</time>
      </trkpt>
      <trkpt lat="44.83787" lon="4.69963">
        <ele>215.47</ele>
        <time>2022-04-28T07:34:30Z</time>
      </trkpt>
      <trkpt lat="44.83783" lon="4.69974">
        <ele>215.47</ele>
        <time>2022-04-28T07:34:45Z</time>
      </trkpt>
      <trkpt lat="44.83779" lon="4.70002">
        <ele>207.78</ele>
        <time>2022-04-28T07:35:01Z</time>
      </trkpt>
      <trkpt lat="44.83776" lon="4.70004">
        <ele>206.82</ele>
        <time>2022-04-28T07:35:12Z</time>
      </trkpt>
      <trkpt lat="44.83774" lon="4.70011">
        <ele>204.42</ele>
        <time>2022-04-28T07:35:19Z</time>
      </trkpt>
      <trkpt lat="44.83751" lon="4.7003">
        <ele>196.25</ele>
        <time>2022-04-28T07:35:36Z</time>
      </trkpt>
      <trkpt lat="44.83724" lon="4.70045">
        <ele>194.8</ele>
        <time>2022-04-28T07:35:54Z</time>
      </trkpt>
      <trkpt lat="44.837" lon="4.70051">
        <ele>194.32</ele>
        <time>2022-04-28T07:36:11Z</time>
      </trkpt>
      <trkpt lat="44.83676" lon="4.70063">
        <ele>190</ele>
        <time>2022-04-28T07:36:31Z</time>
      </trkpt>
      <trkpt lat="44.8366" lon="4.70084">
        <ele>189.52</ele>
        <time>2022-04-28T07:36:49Z</time>
      </trkpt>
      <trkpt lat="44.83646" lon="4.701">
        <ele>189.52</ele>
        <time>2022-04-28T07:37:03Z</time>
      </trkpt>
      <trkpt lat="44.83647" lon="4.70108">
        <ele>189.04</ele>
        <time>2022-04-28T07:37:08Z</time>
      </trkpt>
      <trkpt lat="44.83656" lon="4.70125">
        <ele>186.63</ele>
        <time>2022-04-28T07:37:22Z</time>
      </trkpt>
      <trkpt lat="44.83671" lon="4.70125">
        <ele>186.63</ele>
        <time>2022-04-28T07:37:39Z</time>
      </trkpt>
      <trkpt lat="44.83688" lon="4.70131">
        <ele>188.56</ele>
        <time>2022-04-28T07:37:55Z</time>
      </trkpt>
      <trkpt lat="44.83697" lon="4.70136">
        <ele>190.48</ele>
        <time>2022-04-28T07:38:07Z</time>
      </trkpt>
      <trkpt lat="44.83717" lon="4.70146">
        <ele>193.36</ele>
        <time>2022-04-28T07:38:23Z</time>
      </trkpt>
      <trkpt lat="44.8373" lon="4.70146">
        <ele>194.8</ele>
        <time>2022-04-28T07:38:33Z</time>
      </trkpt>
      <trkpt lat="44.83733" lon="4.70136">
        <ele>195.77</ele>
        <time>2022-04-28T07:38:40Z</time>
      </trkpt>
      <trkpt lat="44.83736" lon="4.70115">
        <ele>200.57</ele>
        <time>2022-04-28T07:38:56Z</time>
      </trkpt>
      <trkpt lat="44.8374" lon="4.70107">
        <ele>202.98</ele>
        <time>2022-04-28T07:39:02Z</time>
      </trkpt>
      <trkpt lat="44.83756" lon="4.70083">
        <ele>208.26</ele>
        <time>2022-04-28T07:39:20Z</time>
      </trkpt>
      <trkpt lat="44.83758" lon="4.70083">
        <ele>207.78</ele>
        <time>2022-04-28T07:39:21Z</time>
      </trkpt>
      <trkpt lat="44.8378" lon="4.70081">
        <ele>205.86</ele>
        <time>2022-04-28T07:39:35Z</time>
      </trkpt>
      <trkpt lat="44.83801" lon="4.7008">
        <ele>207.78</ele>
        <time>2022-04-28T07:39:52Z</time>
      </trkpt>
      <trkpt lat="44.83812" lon="4.70077">
        <ele>207.78</ele>
        <time>2022-04-28T07:40:06Z</time>
      </trkpt>
      <trkpt lat="44.83828" lon="4.7008">
        <ele>206.82</ele>
        <time>2022-04-28T07:40:19Z</time>
      </trkpt>
      <trkpt lat="44.83852" lon="4.70093">
        <ele>204.9</ele>
        <time>2022-04-28T07:40:37Z</time>
      </trkpt>
      <trkpt lat="44.83874" lon="4.70107">
        <ele>204.42</ele>
        <time>2022-04-28T07:40:55Z</time>
      </trkpt>
      <trkpt lat="44.83897" lon="4.70119">
        <ele>203.94</ele>
        <time>2022-04-28T07:41:13Z</time>
      </trkpt>
      <trkpt lat="44.83918" lon="4.70134">
        <ele>202.98</ele>
        <time>2022-04-28T07:41:26Z</time>
      </trkpt>
      <trkpt lat="44.83933" lon="4.7016">
        <ele>204.42</ele>
        <time>2022-04-28T07:41:41Z</time>
      </trkpt>
      <trkpt lat="44.83945" lon="4.70176">
        <ele>205.86</ele>
        <time>2022-04-28T07:41:54Z</time>
      </trkpt>
      <trkpt lat="44.83955" lon="4.7019">
        <ele>207.3</ele>
        <time>2022-04-28T07:42:04Z</time>
      </trkpt>
      <trkpt lat="44.8397" lon="4.7021">
        <ele>212.59</ele>
        <time>2022-04-28T07:42:22Z</time>
      </trkpt>
      <trkpt lat="44.83984" lon="4.70226">
        <ele>217.4</ele>
        <time>2022-04-28T07:42:35Z</time>
      </trkpt>
      <trkpt lat="44.84001" lon="4.70244">
        <ele>221.72</ele>
        <time>2022-04-28T07:42:49Z</time>
      </trkpt>
      <trkpt lat="44.84012" lon="4.70261">
        <ele>222.68</ele>
        <time>2022-04-28T07:43:01Z</time>
      </trkpt>
      <trkpt lat="44.84026" lon="4.70272">
        <ele>223.16</ele>
        <time>2022-04-28T07:43:16Z</time>
      </trkpt>
      <trkpt lat="44.84039" lon="4.70284">
        <ele>223.16</ele>
        <time>2022-04-28T07:43:30Z</time>
      </trkpt>
      <trkpt lat="44.84041" lon="4.70285">
        <ele>223.16</ele>
        <time>2022-04-28T07:43:32Z</time>
      </trkpt>
      <trkpt lat="44.84068" lon="4.70294">
        <ele>222.2</ele>
        <time>2022-04-28T07:43:51Z</time>
      </trkpt>
      <trkpt lat="44.8409" lon="4.7029">
        <ele>218.84</ele>
        <time>2022-04-28T07:44:08Z</time>
      </trkpt>
      <trkpt lat="44.84112" lon="4.70288">
        <ele>216.91</ele>
        <time>2022-04-28T07:44:25Z</time>
      </trkpt>
      <trkpt lat="44.84135" lon="4.70287">
        <ele>215.95</ele>
        <time>2022-04-28T07:44:43Z</time>
      </trkpt>
      <trkpt lat="44.84144" lon="4.70286">
        <ele>216.43</ele>
        <time>2022-04-28T07:44:51Z</time>
      </trkpt>
      <trkpt lat="44.84154" lon="4.70284">
        <ele>216.91</ele>
        <time>2022-04-28T07:44:59Z</time>
      </trkpt>
      <trkpt lat="44.84177" lon="4.70284">
        <ele>217.4</ele>
        <time>2022-04-28T07:45:17Z</time>
      </trkpt>
      <trkpt lat="44.84197" lon="4.70287">
        <ele>217.88</ele>
        <time>2022-04-28T07:45:34Z</time>
      </trkpt>
      <trkpt lat="44.84201" lon="4.70287">
        <ele>217.88</ele>
        <time>2022-04-28T07:45:37Z</time>
      </trkpt>
      <trkpt lat="44.84221" lon="4.7029">
        <ele>217.4</ele>
        <time>2022-04-28T07:45:52Z</time>
      </trkpt>
      <trkpt lat="44.84238" lon="4.70296">
        <ele>217.88</ele>
        <time>2022-04-28T07:46:08Z</time>
      </trkpt>
      <trkpt lat="44.8426" lon="4.70308">
        <ele>218.36</ele>
        <time>2022-04-28T07:46:26Z</time>
      </trkpt>
      <trkpt lat="44.84278" lon="4.70302">
        <ele>219.32</ele>
        <time>2022-04-28T07:46:40Z</time>
      </trkpt>
      <trkpt lat="44.84287" lon="4.70299">
        <ele>219.8</ele>
        <time>2022-04-28T07:46:47Z</time>
      </trkpt>
      <trkpt lat="44.84292" lon="4.70302">
        <ele>220.28</ele>
        <time>2022-04-28T07:46:51Z</time>
      </trkpt>
      <trkpt lat="44.84309" lon="4.70326">
        <ele>220.28</ele>
        <time>2022-04-28T07:47:08Z</time>
      </trkpt>
      <trkpt lat="44.8432" lon="4.70348">
        <ele>220.76</ele>
        <time>2022-04-28T07:47:21Z</time>
      </trkpt>
      <trkpt lat="44.8433" lon="4.70376">
        <ele>220.76</ele>
        <time>2022-04-28T07:47:38Z</time>
      </trkpt>
      <trkpt lat="44.8434" lon="4.70396">
        <ele>221.72</ele>
        <time>2022-04-28T07:47:51Z</time>
      </trkpt>
      <trkpt lat="44.84355" lon="4.70408">
        <ele>222.2</ele>
        <time>2022-04-28T07:48:04Z</time>
      </trkpt>
      <trkpt lat="44.84368" lon="4.704">
        <ele>224.12</ele>
        <time>2022-04-28T07:48:19Z</time>
      </trkpt>
      <trkpt lat="44.8437" lon="4.70398">
        <ele>224.12</ele>
        <time>2022-04-28T07:48:22Z</time>
      </trkpt>
      <trkpt lat="44.84381" lon="4.70378">
        <ele>226.05</ele>
        <time>2022-04-28T07:48:38Z</time>
      </trkpt>
      <trkpt lat="44.84391" lon="4.70374">
        <ele>226.53</ele>
        <time>2022-04-28T07:48:46Z</time>
      </trkpt>
      <trkpt lat="44.84411" lon="4.70377">
        <ele>227.01</ele>
        <time>2022-04-28T07:49:02Z</time>
      </trkpt>
      <trkpt lat="44.84426" lon="4.70379">
        <ele>227.97</ele>
        <time>2022-04-28T07:49:16Z</time>
      </trkpt>
      <trkpt lat="44.84429" lon="4.70377">
        <ele>228.45</ele>
        <time>2022-04-28T07:49:22Z</time>
      </trkpt>
      <trkpt lat="44.8444" lon="4.70361">
        <ele>230.37</ele>
        <time>2022-04-28T07:49:37Z</time>
      </trkpt>
      <trkpt lat="44.84455" lon="4.70346">
        <ele>232.78</ele>
        <time>2022-04-28T07:49:53Z</time>
      </trkpt>
      <trkpt lat="44.84475" lon="4.7033">
        <ele>239.02</ele>
        <time>2022-04-28T07:50:11Z</time>
      </trkpt>
      <trkpt lat="44.84479" lon="4.70328">
        <ele>239.99</ele>
        <time>2022-04-28T07:50:15Z</time>
      </trkpt>
      <trkpt lat="44.84494" lon="4.70315">
        <ele>245.27</ele>
        <time>2022-04-28T07:50:31Z</time>
      </trkpt>
      <trkpt lat="44.84497" lon="4.70312">
        <ele>248.16</ele>
        <time>2022-04-28T07:50:43Z</time>
      </trkpt>
      <trkpt lat="44.845" lon="4.70309">
        <ele>247.68</ele>
        <time>2022-04-28T07:51:01Z</time>
      </trkpt>
      <trkpt lat="44.84508" lon="4.70301">
        <ele>248.16</ele>
        <time>2022-04-28T07:51:12Z</time>
      </trkpt>
      <trkpt lat="44.84514" lon="4.70294">
        <ele>250.56</ele>
        <time>2022-04-28T07:51:23Z</time>
      </trkpt>
      <trkpt lat="44.84524" lon="4.70276">
        <ele>258.73</ele>
        <time>2022-04-28T07:51:38Z</time>
      </trkpt>
      <trkpt lat="44.84535" lon="4.70262">
        <ele>264.5</ele>
        <time>2022-04-28T07:51:51Z</time>
      </trkpt>
      <trkpt lat="44.84545" lon="4.70243">
        <ele>264.02</ele>
        <time>2022-04-28T07:52:08Z</time>
      </trkpt>
      <trkpt lat="44.84554" lon="4.70228">
        <ele>264.98</ele>
        <time>2022-04-28T07:52:21Z</time>
      </trkpt>
      <trkpt lat="44.84558" lon="4.7021">
        <ele>265.46</ele>
        <time>2022-04-28T07:52:35Z</time>
      </trkpt>
      <trkpt lat="44.84567" lon="4.70192">
        <ele>264.98</ele>
        <time>2022-04-28T07:52:49Z</time>
      </trkpt>
      <trkpt lat="44.84576" lon="4.70176">
        <ele>265.94</ele>
        <time>2022-04-28T07:53:01Z</time>
      </trkpt>
      <trkpt lat="44.84585" lon="4.70159">
        <ele>266.42</ele>
        <time>2022-04-28T07:53:14Z</time>
      </trkpt>
      <trkpt lat="44.84593" lon="4.70145">
        <ele>268.83</ele>
        <time>2022-04-28T07:53:27Z</time>
      </trkpt>
      <trkpt lat="44.84604" lon="4.70128">
        <ele>269.31</ele>
        <time>2022-04-28T07:53:42Z</time>
      </trkpt>
      <trkpt lat="44.84612" lon="4.70114">
        <ele>267.38</ele>
        <time>2022-04-28T07:53:54Z</time>
      </trkpt>
      <trkpt lat="44.84617" lon="4.70095">
        <ele>264.98</ele>
        <time>2022-04-28T07:54:07Z</time>
      </trkpt>
      <trkpt lat="44.84615" lon="4.70074">
        <ele>267.38</ele>
        <time>2022-04-28T07:54:20Z</time>
      </trkpt>
      <trkpt lat="44.84618" lon="4.70054">
        <ele>264.5</ele>
        <time>2022-04-28T07:54:31Z</time>
      </trkpt>
      <trkpt lat="44.8463" lon="4.70048">
        <ele>260.17</ele>
        <time>2022-04-28T07:54:42Z</time>
      </trkpt>
      <trkpt lat="44.84633" lon="4.70048">
        <ele>261.62</ele>
        <time>2022-04-28T07:54:56Z</time>
      </trkpt>
      <trkpt lat="44.84632" lon="4.70046">
        <ele>262.1</ele>
        <time>2022-04-28T07:55:08Z</time>
      </trkpt>
      <trkpt lat="44.84635" lon="4.70044">
        <ele>262.58</ele>
        <time>2022-04-28T07:55:24Z</time>
      </trkpt>
      <trkpt lat="44.84637" lon="4.70044">
        <ele>260.65</ele>
        <time>2022-04-28T07:55:40Z</time>
      </trkpt>
      <trkpt lat="44.84635" lon="4.70039">
        <ele>261.62</ele>
        <time>2022-04-28T07:55:58Z</time>
      </trkpt>
      <trkpt lat="44.84632" lon="4.70034">
        <ele>261.62</ele>
        <time>2022-04-28T07:56:16Z</time>
      </trkpt>
      <trkpt lat="44.84641" lon="4.7002">
        <ele>249.6</ele>
        <time>2022-04-28T07:56:47Z</time>
      </trkpt>
      <trkpt lat="44.8464" lon="4.70017">
        <ele>247.2</ele>
        <time>2022-04-28T07:57:01Z</time>
      </trkpt>
      <trkpt lat="44.84643" lon="4.70006">
        <ele>246.72</ele>
        <time>2022-04-28T07:57:12Z</time>
      </trkpt>
      <trkpt lat="44.84647" lon="4.70006">
        <ele>245.75</ele>
        <time>2022-04-28T07:57:24Z</time>
      </trkpt>
      <trkpt lat="44.84649" lon="4.70003">
        <ele>244.79</ele>
        <time>2022-04-28T07:57:35Z</time>
      </trkpt>
      <trkpt lat="44.84651" lon="4.69998">
        <ele>245.27</ele>
        <time>2022-04-28T07:57:47Z</time>
      </trkpt>
      <trkpt lat="44.84656" lon="4.69997">
        <ele>245.75</ele>
        <time>2022-04-28T07:58:01Z</time>
      </trkpt>
      <trkpt lat="44.8466" lon="4.69992">
        <ele>246.23</ele>
        <time>2022-04-28T07:58:11Z</time>
      </trkpt>
      <trkpt lat="44.84665" lon="4.69999">
        <ele>247.2</ele>
        <time>2022-04-28T07:58:23Z</time>
      </trkpt>
      <trkpt lat="44.84667" lon="4.70007">
        <ele>248.64</ele>
        <time>2022-04-28T07:58:35Z</time>
      </trkpt>
      <trkpt lat="44.84668" lon="4.7001">
        <ele>248.64</ele>
        <time>2022-04-28T07:58:47Z</time>
      </trkpt>
      <trkpt lat="44.84671" lon="4.70014">
        <ele>252</ele>
        <time>2022-04-28T07:59:00Z</time>
      </trkpt>
      <trkpt lat="44.84674" lon="4.7001">
        <ele>254.89</ele>
        <time>2022-04-28T07:59:14Z</time>
      </trkpt>
      <trkpt lat="44.84676" lon="4.70006">
        <ele>257.29</ele>
        <time>2022-04-28T07:59:25Z</time>
      </trkpt>
      <trkpt lat="44.8468" lon="4.69998">
        <ele>261.14</ele>
        <time>2022-04-28T07:59:39Z</time>
      </trkpt>
      <trkpt lat="44.84685" lon="4.70002">
        <ele>262.58</ele>
        <time>2022-04-28T07:59:52Z</time>
      </trkpt>
      <trkpt lat="44.84688" lon="4.70005">
        <ele>263.54</ele>
        <time>2022-04-28T08:00:03Z</time>
      </trkpt>
      <trkpt lat="44.84692" lon="4.70006">
        <ele>264.5</ele>
        <time>2022-04-28T08:00:14Z</time>
      </trkpt>
      <trkpt lat="44.84697" lon="4.70008">
        <ele>267.38</ele>
        <time>2022-04-28T08:00:26Z</time>
      </trkpt>
      <trkpt lat="44.84699" lon="4.70011">
        <ele>271.23</ele>
        <time>2022-04-28T08:00:37Z</time>
      </trkpt>
      <trkpt lat="44.84704" lon="4.70008">
        <ele>273.15</ele>
        <time>2022-04-28T08:00:49Z</time>
      </trkpt>
      <trkpt lat="44.84707" lon="4.70003">
        <ele>276.04</ele>
        <time>2022-04-28T08:01:02Z</time>
      </trkpt>
      <trkpt lat="44.84712" lon="4.69997">
        <ele>278.44</ele>
        <time>2022-04-28T08:01:16Z</time>
      </trkpt>
      <trkpt lat="44.84716" lon="4.69993">
        <ele>280.84</ele>
        <time>2022-04-28T08:01:28Z</time>
      </trkpt>
      <trkpt lat="44.84717" lon="4.69987">
        <ele>282.77</ele>
        <time>2022-04-28T08:01:42Z</time>
      </trkpt>
      <trkpt lat="44.84719" lon="4.69976">
        <ele>285.65</ele>
        <time>2022-04-28T08:01:55Z</time>
      </trkpt>
      <trkpt lat="44.84725" lon="4.69977">
        <ele>285.65</ele>
        <time>2022-04-28T08:02:07Z</time>
      </trkpt>
      <trkpt lat="44.84734" lon="4.69975">
        <ele>288.05</ele>
        <time>2022-04-28T08:02:21Z</time>
      </trkpt>
      <trkpt lat="44.84742" lon="4.69969">
        <ele>294.3</ele>
        <time>2022-04-28T08:02:35Z</time>
      </trkpt>
      <trkpt lat="44.84748" lon="4.69963">
        <ele>301.99</ele>
        <time>2022-04-28T08:02:48Z</time>
      </trkpt>
      <trkpt lat="44.84755" lon="4.69955">
        <ele>307.28</ele>
        <time>2022-04-28T08:03:04Z</time>
      </trkpt>
      <trkpt lat="44.84762" lon="4.69952">
        <ele>311.12</ele>
        <time>2022-04-28T08:03:19Z</time>
      </trkpt>
      <trkpt lat="44.84771" lon="4.69947">
        <ele>317.37</ele>
        <time>2022-04-28T08:03:35Z</time>
      </trkpt>
      <trkpt lat="44.84778" lon="4.69942">
        <ele>318.81</ele>
        <time>2022-04-28T08:03:51Z</time>
      </trkpt>
      <trkpt lat="44.84784" lon="4.69937">
        <ele>320.74</ele>
        <time>2022-04-28T08:04:06Z</time>
      </trkpt>
      <trkpt lat="44.84791" lon="4.69935">
        <ele>321.7</ele>
        <time>2022-04-28T08:04:19Z</time>
      </trkpt>
      <trkpt lat="44.84799" lon="4.69931">
        <ele>326.5</ele>
        <time>2022-04-28T08:04:37Z</time>
      </trkpt>
      <trkpt lat="44.84801" lon="4.69922">
        <ele>326.99</ele>
        <time>2022-04-28T08:04:52Z</time>
      </trkpt>
      <trkpt lat="44.84807" lon="4.6992">
        <ele>327.47</ele>
        <time>2022-04-28T08:05:06Z</time>
      </trkpt>
      <trkpt lat="44.84813" lon="4.69923">
        <ele>330.35</ele>
        <time>2022-04-28T08:05:23Z</time>
      </trkpt>
      <trkpt lat="44.84817" lon="4.6993">
        <ele>332.75</ele>
        <time>2022-04-28T08:05:38Z</time>
      </trkpt>
      <trkpt lat="44.84818" lon="4.69935">
        <ele>334.68</ele>
        <time>2022-04-28T08:05:51Z</time>
      </trkpt>
      <trkpt lat="44.84819" lon="4.69928">
        <ele>335.64</ele>
        <time>2022-04-28T08:06:06Z</time>
      </trkpt>
      <trkpt lat="44.84826" lon="4.69922">
        <ele>336.6</ele>
        <time>2022-04-28T08:06:19Z</time>
      </trkpt>
      <trkpt lat="44.84829" lon="4.69925">
        <ele>338.52</ele>
        <time>2022-04-28T08:06:36Z</time>
      </trkpt>
      <trkpt lat="44.84829" lon="4.69917">
        <ele>341.89</ele>
        <time>2022-04-28T08:06:48Z</time>
      </trkpt>
      <trkpt lat="44.84836" lon="4.69909">
        <ele>344.29</ele>
        <time>2022-04-28T08:07:03Z</time>
      </trkpt>
      <trkpt lat="44.84839" lon="4.69914">
        <ele>346.69</ele>
        <time>2022-04-28T08:07:17Z</time>
      </trkpt>
      <trkpt lat="44.84842" lon="4.69914">
        <ele>345.73</ele>
        <time>2022-04-28T08:07:32Z</time>
      </trkpt>
      <trkpt lat="44.84847" lon="4.69909">
        <ele>347.65</ele>
        <time>2022-04-28T08:07:45Z</time>
      </trkpt>
      <trkpt lat="44.84853" lon="4.699">
        <ele>349.58</ele>
        <time>2022-04-28T08:08:01Z</time>
      </trkpt>
      <trkpt lat="44.84858" lon="4.69905">
        <ele>351.5</ele>
        <time>2022-04-28T08:08:15Z</time>
      </trkpt>
      <trkpt lat="44.84859" lon="4.69915">
        <ele>354.86</ele>
        <time>2022-04-28T08:08:32Z</time>
      </trkpt>
      <trkpt lat="44.8486" lon="4.69915">
        <ele>356.31</ele>
        <time>2022-04-28T08:08:45Z</time>
      </trkpt>
      <trkpt lat="44.84865" lon="4.69913">
        <ele>357.27</ele>
        <time>2022-04-28T08:08:59Z</time>
      </trkpt>
      <trkpt lat="44.84868" lon="4.6992">
        <ele>359.67</ele>
        <time>2022-04-28T08:09:11Z</time>
      </trkpt>
      <trkpt lat="44.84874" lon="4.69917">
        <ele>365.92</ele>
        <time>2022-04-28T08:09:26Z</time>
      </trkpt>
      <trkpt lat="44.84881" lon="4.69919">
        <ele>368.32</ele>
        <time>2022-04-28T08:09:41Z</time>
      </trkpt>
      <trkpt lat="44.84882" lon="4.69926">
        <ele>370.24</ele>
        <time>2022-04-28T08:09:55Z</time>
      </trkpt>
      <trkpt lat="44.84883" lon="4.69937">
        <ele>373.13</ele>
        <time>2022-04-28T08:10:10Z</time>
      </trkpt>
      <trkpt lat="44.84888" lon="4.69947">
        <ele>373.13</ele>
        <time>2022-04-28T08:10:24Z</time>
      </trkpt>
      <trkpt lat="44.84892" lon="4.69943">
        <ele>374.57</ele>
        <time>2022-04-28T08:10:38Z</time>
      </trkpt>
      <trkpt lat="44.84894" lon="4.69944">
        <ele>374.09</ele>
        <time>2022-04-28T08:10:51Z</time>
      </trkpt>
      <trkpt lat="44.84896" lon="4.69943">
        <ele>372.65</ele>
        <time>2022-04-28T08:11:11Z</time>
      </trkpt>
      <trkpt lat="44.849" lon="4.69945">
        <ele>373.61</ele>
        <time>2022-04-28T08:11:25Z</time>
      </trkpt>
      <trkpt lat="44.84901" lon="4.69944">
        <ele>376.01</ele>
        <time>2022-04-28T08:11:38Z</time>
      </trkpt>
      <trkpt lat="44.84909" lon="4.6994">
        <ele>380.34</ele>
        <time>2022-04-28T08:11:53Z</time>
      </trkpt>
      <trkpt lat="44.84914" lon="4.69934">
        <ele>383.7</ele>
        <time>2022-04-28T08:12:09Z</time>
      </trkpt>
      <trkpt lat="44.8492" lon="4.69936">
        <ele>382.26</ele>
        <time>2022-04-28T08:12:22Z</time>
      </trkpt>
      <trkpt lat="44.84922" lon="4.69949">
        <ele>384.66</ele>
        <time>2022-04-28T08:12:37Z</time>
      </trkpt>
      <trkpt lat="44.84921" lon="4.69959">
        <ele>390.43</ele>
        <time>2022-04-28T08:12:51Z</time>
      </trkpt>
      <trkpt lat="44.84923" lon="4.69959">
        <ele>394.28</ele>
        <time>2022-04-28T08:13:06Z</time>
      </trkpt>
      <trkpt lat="44.84932" lon="4.69952">
        <ele>399.57</ele>
        <time>2022-04-28T08:13:21Z</time>
      </trkpt>
      <trkpt lat="44.84941" lon="4.69946">
        <ele>402.93</ele>
        <time>2022-04-28T08:13:34Z</time>
      </trkpt>
      <trkpt lat="44.84952" lon="4.69946">
        <ele>401.97</ele>
        <time>2022-04-28T08:13:46Z</time>
      </trkpt>
      <trkpt lat="44.84961" lon="4.69943">
        <ele>405.33</ele>
        <time>2022-04-28T08:14:01Z</time>
      </trkpt>
      <trkpt lat="44.8497" lon="4.69939">
        <ele>407.74</ele>
        <time>2022-04-28T08:14:16Z</time>
      </trkpt>
      <trkpt lat="44.8498" lon="4.69935">
        <ele>412.54</ele>
        <time>2022-04-28T08:14:31Z</time>
      </trkpt>
      <trkpt lat="44.8499" lon="4.69931">
        <ele>414.47</ele>
        <time>2022-04-28T08:14:46Z</time>
      </trkpt>
      <trkpt lat="44.85" lon="4.69927">
        <ele>414.95</ele>
        <time>2022-04-28T08:15:01Z</time>
      </trkpt>
      <trkpt lat="44.85006" lon="4.69927">
        <ele>414.47</ele>
        <time>2022-04-28T08:15:14Z</time>
      </trkpt>
      <trkpt lat="44.8501" lon="4.69924">
        <ele>414.47</ele>
        <time>2022-04-28T08:15:26Z</time>
      </trkpt>
      <trkpt lat="44.85018" lon="4.69921">
        <ele>416.87</ele>
        <time>2022-04-28T08:15:43Z</time>
      </trkpt>
      <trkpt lat="44.85027" lon="4.69918">
        <ele>419.27</ele>
        <time>2022-04-28T08:15:58Z</time>
      </trkpt>
      <trkpt lat="44.85038" lon="4.69912">
        <ele>420.23</ele>
        <time>2022-04-28T08:16:13Z</time>
      </trkpt>
      <trkpt lat="44.85048" lon="4.69907">
        <ele>424.08</ele>
        <time>2022-04-28T08:16:28Z</time>
      </trkpt>
      <trkpt lat="44.85058" lon="4.699">
        <ele>426.96</ele>
        <time>2022-04-28T08:16:43Z</time>
      </trkpt>
      <trkpt lat="44.85066" lon="4.69892">
        <ele>428.89</ele>
        <time>2022-04-28T08:16:59Z</time>
      </trkpt>
      <trkpt lat="44.85072" lon="4.69884">
        <ele>430.33</ele>
        <time>2022-04-28T08:17:14Z</time>
      </trkpt>
      <trkpt lat="44.85074" lon="4.6988">
        <ele>432.25</ele>
        <time>2022-04-28T08:17:27Z</time>
      </trkpt>
      <trkpt lat="44.85079" lon="4.69869">
        <ele>435.13</ele>
        <time>2022-04-28T08:17:42Z</time>
      </trkpt>
      <trkpt lat="44.85083" lon="4.69858">
        <ele>437.06</ele>
        <time>2022-04-28T08:17:56Z</time>
      </trkpt>
      <trkpt lat="44.85083" lon="4.69858">
        <ele>436.1</ele>
        <time>2022-04-28T08:18:12Z</time>
      </trkpt>
      <trkpt lat="44.85085" lon="4.69856">
        <ele>434.17</ele>
        <time>2022-04-28T08:18:28Z</time>
      </trkpt>
      <trkpt lat="44.85085" lon="4.69858">
        <ele>434.17</ele>
        <time>2022-04-28T08:18:57Z</time>
      </trkpt>
      <trkpt lat="44.85088" lon="4.69846">
        <ele>434.17</ele>
        <time>2022-04-28T08:19:19Z</time>
      </trkpt>
      <trkpt lat="44.85092" lon="4.69838">
        <ele>432.73</ele>
        <time>2022-04-28T08:19:30Z</time>
      </trkpt>
      <trkpt lat="44.85098" lon="4.69828">
        <ele>433.21</ele>
        <time>2022-04-28T08:19:44Z</time>
      </trkpt>
      <trkpt lat="44.85104" lon="4.69818">
        <ele>436.58</ele>
        <time>2022-04-28T08:19:58Z</time>
      </trkpt>
      <trkpt lat="44.85113" lon="4.6981">
        <ele>443.31</ele>
        <time>2022-04-28T08:20:13Z</time>
      </trkpt>
      <trkpt lat="44.85127" lon="4.69806">
        <ele>450.03</ele>
        <time>2022-04-28T08:20:31Z</time>
      </trkpt>
      <trkpt lat="44.85139" lon="4.69803">
        <ele>452.92</ele>
        <time>2022-04-28T08:20:48Z</time>
      </trkpt>
      <trkpt lat="44.85146" lon="4.69806">
        <ele>454.84</ele>
        <time>2022-04-28T08:21:03Z</time>
      </trkpt>
      <trkpt lat="44.85145" lon="4.69809">
        <ele>454.36</ele>
        <time>2022-04-28T08:21:19Z</time>
      </trkpt>
      <trkpt lat="44.85144" lon="4.69811">
        <ele>454.84</ele>
        <time>2022-04-28T08:21:22Z</time>
      </trkpt>
      <trkpt lat="44.85139" lon="4.69827">
        <ele>457.72</ele>
        <time>2022-04-28T08:21:38Z</time>
      </trkpt>
      <trkpt lat="44.85134" lon="4.6984">
        <ele>461.09</ele>
        <time>2022-04-28T08:21:52Z</time>
      </trkpt>
      <trkpt lat="44.85128" lon="4.69855">
        <ele>463.01</ele>
        <time>2022-04-28T08:22:06Z</time>
      </trkpt>
      <trkpt lat="44.85123" lon="4.69865">
        <ele>463.01</ele>
        <time>2022-04-28T08:22:15Z</time>
      </trkpt>
      <trkpt lat="44.85122" lon="4.6987">
        <ele>463.01</ele>
        <time>2022-04-28T08:22:18Z</time>
      </trkpt>
      <trkpt lat="44.8512" lon="4.69875">
        <ele>462.53</ele>
        <time>2022-04-28T08:22:21Z</time>
      </trkpt>
      <trkpt lat="44.85119" lon="4.69879">
        <ele>462.53</ele>
        <time>2022-04-28T08:22:23Z</time>
      </trkpt>
      <trkpt lat="44.85117" lon="4.69901">
        <ele>462.53</ele>
        <time>2022-04-28T08:22:37Z</time>
      </trkpt>
      <trkpt lat="44.85112" lon="4.69919">
        <ele>463.49</ele>
        <time>2022-04-28T08:22:53Z</time>
      </trkpt>
      <trkpt lat="44.85109" lon="4.69927">
        <ele>463.49</ele>
        <time>2022-04-28T08:23:00Z</time>
      </trkpt>
      <trkpt lat="44.85105" lon="4.69955">
        <ele>463.97</ele>
        <time>2022-04-28T08:23:17Z</time>
      </trkpt>
      <trkpt lat="44.85103" lon="4.69967">
        <ele>464.45</ele>
        <time>2022-04-28T08:23:29Z</time>
      </trkpt>
      <trkpt lat="44.85105" lon="4.69967">
        <ele>465.42</ele>
        <time>2022-04-28T08:23:42Z</time>
      </trkpt>
      <trkpt lat="44.85114" lon="4.69948">
        <ele>466.86</ele>
        <time>2022-04-28T08:23:58Z</time>
      </trkpt>
      <trkpt lat="44.85117" lon="4.69943">
        <ele>466.38</ele>
        <time>2022-04-28T08:24:02Z</time>
      </trkpt>
      <trkpt lat="44.85129" lon="4.69917">
        <ele>465.9</ele>
        <time>2022-04-28T08:24:20Z</time>
      </trkpt>
      <trkpt lat="44.85138" lon="4.69897">
        <ele>465.9</ele>
        <time>2022-04-28T08:24:35Z</time>
      </trkpt>
      <trkpt lat="44.85151" lon="4.69871">
        <ele>470.22</ele>
        <time>2022-04-28T08:24:53Z</time>
      </trkpt>
      <trkpt lat="44.85164" lon="4.69855">
        <ele>474.07</ele>
        <time>2022-04-28T08:25:08Z</time>
      </trkpt>
      <trkpt lat="44.85167" lon="4.69852">
        <ele>475.51</ele>
        <time>2022-04-28T08:25:12Z</time>
      </trkpt>
      <trkpt lat="44.85185" lon="4.69839">
        <ele>481.28</ele>
        <time>2022-04-28T08:25:28Z</time>
      </trkpt>
      <trkpt lat="44.85203" lon="4.69827">
        <ele>484.16</ele>
        <time>2022-04-28T08:25:46Z</time>
      </trkpt>
      <trkpt lat="44.85217" lon="4.69817">
        <ele>487.05</ele>
        <time>2022-04-28T08:25:59Z</time>
      </trkpt>
      <trkpt lat="44.85231" lon="4.698">
        <ele>492.81</ele>
        <time>2022-04-28T08:26:17Z</time>
      </trkpt>
      <trkpt lat="44.85241" lon="4.69775">
        <ele>493.77</ele>
        <time>2022-04-28T08:26:35Z</time>
      </trkpt>
      <trkpt lat="44.8524" lon="4.69753">
        <ele>497.14</ele>
        <time>2022-04-28T08:26:51Z</time>
      </trkpt>
      <trkpt lat="44.85238" lon="4.69735">
        <ele>501.95</ele>
        <time>2022-04-28T08:27:05Z</time>
      </trkpt>
      <trkpt lat="44.85238" lon="4.69732">
        <ele>501.95</ele>
        <time>2022-04-28T08:27:12Z</time>
      </trkpt>
      <trkpt lat="44.85234" lon="4.69707">
        <ele>503.39</ele>
        <time>2022-04-28T08:27:28Z</time>
      </trkpt>
      <trkpt lat="44.85233" lon="4.6968">
        <ele>503.39</ele>
        <time>2022-04-28T08:27:43Z</time>
      </trkpt>
      <trkpt lat="44.85236" lon="4.69647">
        <ele>502.91</ele>
        <time>2022-04-28T08:28:01Z</time>
      </trkpt>
      <trkpt lat="44.85241" lon="4.6963">
        <ele>503.39</ele>
        <time>2022-04-28T08:28:12Z</time>
      </trkpt>
      <trkpt lat="44.85247" lon="4.696">
        <ele>503.39</ele>
        <time>2022-04-28T08:28:28Z</time>
      </trkpt>
      <trkpt lat="44.85257" lon="4.69568">
        <ele>505.79</ele>
        <time>2022-04-28T08:28:45Z</time>
      </trkpt>
      <trkpt lat="44.85273" lon="4.69536">
        <ele>504.83</ele>
        <time>2022-04-28T08:29:04Z</time>
      </trkpt>
      <trkpt lat="44.85282" lon="4.69525">
        <ele>503.87</ele>
        <time>2022-04-28T08:29:13Z</time>
      </trkpt>
      <trkpt lat="44.85289" lon="4.69517">
        <ele>503.39</ele>
        <time>2022-04-28T08:29:20Z</time>
      </trkpt>
      <trkpt lat="44.85295" lon="4.69512">
        <ele>501.46</ele>
        <time>2022-04-28T08:29:25Z</time>
      </trkpt>
      <trkpt lat="44.85315" lon="4.695">
        <ele>501.46</ele>
        <time>2022-04-28T08:29:42Z</time>
      </trkpt>
      <trkpt lat="44.85321" lon="4.69495">
        <ele>500.98</ele>
        <time>2022-04-28T08:29:48Z</time>
      </trkpt>
      <trkpt lat="44.85326" lon="4.69493">
        <ele>500.98</ele>
        <time>2022-04-28T08:29:52Z</time>
      </trkpt>
      <trkpt lat="44.85341" lon="4.69485">
        <ele>506.27</ele>
        <time>2022-04-28T08:30:06Z</time>
      </trkpt>
      <trkpt lat="44.85347" lon="4.69482">
        <ele>506.75</ele>
        <time>2022-04-28T08:30:11Z</time>
      </trkpt>
      <trkpt lat="44.85362" lon="4.6948">
        <ele>507.71</ele>
        <time>2022-04-28T08:30:22Z</time>
      </trkpt>
      <trkpt lat="44.85365" lon="4.69486">
        <ele>509.64</ele>
        <time>2022-04-28T08:30:34Z</time>
      </trkpt>
      <trkpt lat="44.85373" lon="4.69486">
        <ele>509.16</ele>
        <time>2022-04-28T08:30:49Z</time>
      </trkpt>
      <trkpt lat="44.85385" lon="4.69487">
        <ele>509.64</ele>
        <time>2022-04-28T08:31:00Z</time>
      </trkpt>
      <trkpt lat="44.85393" lon="4.69488">
        <ele>509.64</ele>
        <time>2022-04-28T08:31:07Z</time>
      </trkpt>
      <trkpt lat="44.85409" lon="4.69496">
        <ele>507.71</ele>
        <time>2022-04-28T08:31:22Z</time>
      </trkpt>
      <trkpt lat="44.85412" lon="4.69499">
        <ele>508.67</ele>
        <time>2022-04-28T08:31:26Z</time>
      </trkpt>
      <trkpt lat="44.85429" lon="4.6951">
        <ele>510.12</ele>
        <time>2022-04-28T08:31:43Z</time>
      </trkpt>
      <trkpt lat="44.85444" lon="4.69519">
        <ele>512.52</ele>
        <time>2022-04-28T08:31:58Z</time>
      </trkpt>
      <trkpt lat="44.85455" lon="4.69524">
        <ele>514.44</ele>
        <time>2022-04-28T08:32:09Z</time>
      </trkpt>
      <trkpt lat="44.8547" lon="4.69528">
        <ele>518.77</ele>
        <time>2022-04-28T08:32:24Z</time>
      </trkpt>
      <trkpt lat="44.85485" lon="4.69533">
        <ele>522.13</ele>
        <time>2022-04-28T08:32:38Z</time>
      </trkpt>
      <trkpt lat="44.85504" lon="4.69537">
        <ele>522.61</ele>
        <time>2022-04-28T08:32:55Z</time>
      </trkpt>
      <trkpt lat="44.85511" lon="4.69543">
        <ele>523.09</ele>
        <time>2022-04-28T08:33:03Z</time>
      </trkpt>
      <trkpt lat="44.85515" lon="4.6956">
        <ele>525.02</ele>
        <time>2022-04-28T08:33:16Z</time>
      </trkpt>
      <trkpt lat="44.85514" lon="4.69566">
        <ele>528.38</ele>
        <time>2022-04-28T08:33:29Z</time>
      </trkpt>
      <trkpt lat="44.855" lon="4.69573">
        <ele>534.63</ele>
        <time>2022-04-28T08:33:45Z</time>
      </trkpt>
      <trkpt lat="44.85483" lon="4.69579">
        <ele>541.36</ele>
        <time>2022-04-28T08:34:01Z</time>
      </trkpt>
      <trkpt lat="44.85461" lon="4.69583">
        <ele>544.72</ele>
        <time>2022-04-28T08:34:16Z</time>
      </trkpt>
      <trkpt lat="44.85445" lon="4.69583">
        <ele>545.2</ele>
        <time>2022-04-28T08:34:27Z</time>
      </trkpt>
      <trkpt lat="44.85425" lon="4.69589">
        <ele>545.2</ele>
        <time>2022-04-28T08:34:44Z</time>
      </trkpt>
      <trkpt lat="44.85407" lon="4.69602">
        <ele>546.17</ele>
        <time>2022-04-28T08:35:03Z</time>
      </trkpt>
      <trkpt lat="44.85393" lon="4.69613">
        <ele>548.57</ele>
        <time>2022-04-28T08:35:18Z</time>
      </trkpt>
      <trkpt lat="44.85377" lon="4.69635">
        <ele>546.17</ele>
        <time>2022-04-28T08:35:35Z</time>
      </trkpt>
      <trkpt lat="44.85362" lon="4.69659">
        <ele>542.8</ele>
        <time>2022-04-28T08:35:51Z</time>
      </trkpt>
      <trkpt lat="44.85348" lon="4.69682">
        <ele>537.03</ele>
        <time>2022-04-28T08:36:05Z</time>
      </trkpt>
      <trkpt lat="44.85344" lon="4.69704">
        <ele>537.99</ele>
        <time>2022-04-28T08:36:19Z</time>
      </trkpt>
      <trkpt lat="44.85344" lon="4.69707">
        <ele>538.48</ele>
        <time>2022-04-28T08:36:21Z</time>
      </trkpt>
      <trkpt lat="44.85347" lon="4.69722">
        <ele>540.4</ele>
        <time>2022-04-28T08:36:29Z</time>
      </trkpt>
      <trkpt lat="44.8535" lon="4.69747">
        <ele>540.88</ele>
        <time>2022-04-28T08:36:44Z</time>
      </trkpt>
      <trkpt lat="44.8535" lon="4.69772">
        <ele>545.2</ele>
        <time>2022-04-28T08:37:00Z</time>
      </trkpt>
      <trkpt lat="44.85351" lon="4.69791">
        <ele>549.05</ele>
        <time>2022-04-28T08:37:14Z</time>
      </trkpt>
      <trkpt lat="44.85351" lon="4.69793">
        <ele>549.05</ele>
        <time>2022-04-28T08:37:15Z</time>
      </trkpt>
      <trkpt lat="44.85358" lon="4.69822">
        <ele>550.01</ele>
        <time>2022-04-28T08:37:31Z</time>
      </trkpt>
      <trkpt lat="44.85365" lon="4.69852">
        <ele>549.53</ele>
        <time>2022-04-28T08:37:47Z</time>
      </trkpt>
      <trkpt lat="44.8537" lon="4.69872">
        <ele>549.05</ele>
        <time>2022-04-28T08:38:02Z</time>
      </trkpt>
      <trkpt lat="44.85372" lon="4.69878">
        <ele>549.53</ele>
        <time>2022-04-28T08:38:16Z</time>
      </trkpt>
      <trkpt lat="44.85373" lon="4.69886">
        <ele>548.09</ele>
        <time>2022-04-28T08:38:32Z</time>
      </trkpt>
      <trkpt lat="44.85376" lon="4.69889">
        <ele>545.69</ele>
        <time>2022-04-28T08:38:49Z</time>
      </trkpt>
      <trkpt lat="44.85388" lon="4.69897">
        <ele>544.24</ele>
        <time>2022-04-28T08:39:02Z</time>
      </trkpt>
      <trkpt lat="44.85405" lon="4.699">
        <ele>544.72</ele>
        <time>2022-04-28T08:39:17Z</time>
      </trkpt>
      <trkpt lat="44.85424" lon="4.69894">
        <ele>545.2</ele>
        <time>2022-04-28T08:39:34Z</time>
      </trkpt>
      <trkpt lat="44.85442" lon="4.6989">
        <ele>545.2</ele>
        <time>2022-04-28T08:39:48Z</time>
      </trkpt>
      <trkpt lat="44.85461" lon="4.69888">
        <ele>547.13</ele>
        <time>2022-04-28T08:40:03Z</time>
      </trkpt>
      <trkpt lat="44.85481" lon="4.69889">
        <ele>550.01</ele>
        <time>2022-04-28T08:40:19Z</time>
      </trkpt>
      <trkpt lat="44.85503" lon="4.69889">
        <ele>551.45</ele>
        <time>2022-04-28T08:40:36Z</time>
      </trkpt>
      <trkpt lat="44.8552" lon="4.69899">
        <ele>558.66</ele>
        <time>2022-04-28T08:40:53Z</time>
      </trkpt>
      <trkpt lat="44.85535" lon="4.69921">
        <ele>564.43</ele>
        <time>2022-04-28T08:41:10Z</time>
      </trkpt>
      <trkpt lat="44.85554" lon="4.6993">
        <ele>566.35</ele>
        <time>2022-04-28T08:41:27Z</time>
      </trkpt>
      <trkpt lat="44.85571" lon="4.69932">
        <ele>575.01</ele>
        <time>2022-04-28T08:41:43Z</time>
      </trkpt>
      <trkpt lat="44.85583" lon="4.69923">
        <ele>579.81</ele>
        <time>2022-04-28T08:41:58Z</time>
      </trkpt>
      <trkpt lat="44.8559" lon="4.69915">
        <ele>594.71</ele>
        <time>2022-04-28T08:42:13Z</time>
      </trkpt>
      <trkpt lat="44.85592" lon="4.69912">
        <ele>596.15</ele>
        <time>2022-04-28T08:42:16Z</time>
      </trkpt>
      <trkpt lat="44.85602" lon="4.69902">
        <ele>596.15</ele>
        <time>2022-04-28T08:42:25Z</time>
      </trkpt>
      <trkpt lat="44.85615" lon="4.69884">
        <ele>595.67</ele>
        <time>2022-04-28T08:42:41Z</time>
      </trkpt>
      <trkpt lat="44.85629" lon="4.69861">
        <ele>594.23</ele>
        <time>2022-04-28T08:42:58Z</time>
      </trkpt>
      <trkpt lat="44.85643" lon="4.69833">
        <ele>592.31</ele>
        <time>2022-04-28T08:43:16Z</time>
      </trkpt>
      <trkpt lat="44.85657" lon="4.69808">
        <ele>591.83</ele>
        <time>2022-04-28T08:43:34Z</time>
      </trkpt>
      <trkpt lat="44.85661" lon="4.69787">
        <ele>591.35</ele>
        <time>2022-04-28T08:43:50Z</time>
      </trkpt>
      <trkpt lat="44.8566" lon="4.69768">
        <ele>595.67</ele>
        <time>2022-04-28T08:44:04Z</time>
      </trkpt>
      <trkpt lat="44.85661" lon="4.69752">
        <ele>596.64</ele>
        <time>2022-04-28T08:44:15Z</time>
      </trkpt>
      <trkpt lat="44.8567" lon="4.69738">
        <ele>594.23</ele>
        <time>2022-04-28T08:44:29Z</time>
      </trkpt>
      <trkpt lat="44.85668" lon="4.69733">
        <ele>594.71</ele>
        <time>2022-04-28T08:44:35Z</time>
      </trkpt>
      <trkpt lat="44.85677" lon="4.6971">
        <ele>606.73</ele>
        <time>2022-04-28T08:44:52Z</time>
      </trkpt>
      <trkpt lat="44.85697" lon="4.6968">
        <ele>602.88</ele>
        <time>2022-04-28T08:45:10Z</time>
      </trkpt>
      <trkpt lat="44.85716" lon="4.69649">
        <ele>600.96</ele>
        <time>2022-04-28T08:45:31Z</time>
      </trkpt>
      <trkpt lat="44.85736" lon="4.69621">
        <ele>596.15</ele>
        <time>2022-04-28T08:45:50Z</time>
      </trkpt>
      <trkpt lat="44.85755" lon="4.69599">
        <ele>592.31</ele>
        <time>2022-04-28T08:46:08Z</time>
      </trkpt>
      <trkpt lat="44.8576" lon="4.69579">
        <ele>591.83</ele>
        <time>2022-04-28T08:46:23Z</time>
      </trkpt>
      <trkpt lat="44.85755" lon="4.69553">
        <ele>594.23</ele>
        <time>2022-04-28T08:46:39Z</time>
      </trkpt>
      <trkpt lat="44.85761" lon="4.69523">
        <ele>596.15</ele>
        <time>2022-04-28T08:46:57Z</time>
      </trkpt>
      <trkpt lat="44.85773" lon="4.69498">
        <ele>596.15</ele>
        <time>2022-04-28T08:47:13Z</time>
      </trkpt>
      <trkpt lat="44.85782" lon="4.69486">
        <ele>594.71</ele>
        <time>2022-04-28T08:47:24Z</time>
      </trkpt>
      <trkpt lat="44.85783" lon="4.69484">
        <ele>595.19</ele>
        <time>2022-04-28T08:47:26Z</time>
      </trkpt>
      <trkpt lat="44.85798" lon="4.69467">
        <ele>597.6</ele>
        <time>2022-04-28T08:47:44Z</time>
      </trkpt>
      <trkpt lat="44.85799" lon="4.69468">
        <ele>597.6</ele>
        <time>2022-04-28T08:47:46Z</time>
      </trkpt>
      <trkpt lat="44.85805" lon="4.6948">
        <ele>599.52</ele>
        <time>2022-04-28T08:47:59Z</time>
      </trkpt>
      <trkpt lat="44.85809" lon="4.69497">
        <ele>602.4</ele>
        <time>2022-04-28T08:48:15Z</time>
      </trkpt>
      <trkpt lat="44.85811" lon="4.69503">
        <ele>602.88</ele>
        <time>2022-04-28T08:48:29Z</time>
      </trkpt>
      <trkpt lat="44.85814" lon="4.69509">
        <ele>604.33</ele>
        <time>2022-04-28T08:48:38Z</time>
      </trkpt>
      <trkpt lat="44.85822" lon="4.69511">
        <ele>607.69</ele>
        <time>2022-04-28T08:48:51Z</time>
      </trkpt>
      <trkpt lat="44.85824" lon="4.6951">
        <ele>607.21</ele>
        <time>2022-04-28T08:48:54Z</time>
      </trkpt>
      <trkpt lat="44.85834" lon="4.69507">
        <ele>607.69</ele>
        <time>2022-04-28T08:49:04Z</time>
      </trkpt>
      <trkpt lat="44.85846" lon="4.69499">
        <ele>608.65</ele>
        <time>2022-04-28T08:49:18Z</time>
      </trkpt>
      <trkpt lat="44.85854" lon="4.69489">
        <ele>611.54</ele>
        <time>2022-04-28T08:49:31Z</time>
      </trkpt>
      <trkpt lat="44.8586" lon="4.69471">
        <ele>614.42</ele>
        <time>2022-04-28T08:49:48Z</time>
      </trkpt>
      <trkpt lat="44.85869" lon="4.69457">
        <ele>616.34</ele>
        <time>2022-04-28T08:50:03Z</time>
      </trkpt>
      <trkpt lat="44.85878" lon="4.69449">
        <ele>621.15</ele>
        <time>2022-04-28T08:50:16Z</time>
      </trkpt>
      <trkpt lat="44.85882" lon="4.69442">
        <ele>622.59</ele>
        <time>2022-04-28T08:50:28Z</time>
      </trkpt>
      <trkpt lat="44.85883" lon="4.69426">
        <ele>628.84</ele>
        <time>2022-04-28T08:50:42Z</time>
      </trkpt>
      <trkpt lat="44.85886" lon="4.69417">
        <ele>631.24</ele>
        <time>2022-04-28T08:50:48Z</time>
      </trkpt>
      <trkpt lat="44.85889" lon="4.6941">
        <ele>632.2</ele>
        <time>2022-04-28T08:50:52Z</time>
      </trkpt>
      <trkpt lat="44.85903" lon="4.69386">
        <ele>632.2</ele>
        <time>2022-04-28T08:51:09Z</time>
      </trkpt>
      <trkpt lat="44.85915" lon="4.69375">
        <ele>632.68</ele>
        <time>2022-04-28T08:51:25Z</time>
      </trkpt>
      <trkpt lat="44.85926" lon="4.69358">
        <ele>633.65</ele>
        <time>2022-04-28T08:51:40Z</time>
      </trkpt>
      <trkpt lat="44.85932" lon="4.69346">
        <ele>635.09</ele>
        <time>2022-04-28T08:51:50Z</time>
      </trkpt>
      <trkpt lat="44.85941" lon="4.69327">
        <ele>634.61</ele>
        <time>2022-04-28T08:52:05Z</time>
      </trkpt>
      <trkpt lat="44.85952" lon="4.69304">
        <ele>635.57</ele>
        <time>2022-04-28T08:52:23Z</time>
      </trkpt>
      <trkpt lat="44.85965" lon="4.6928">
        <ele>637.49</ele>
        <time>2022-04-28T08:52:42Z</time>
      </trkpt>
      <trkpt lat="44.85974" lon="4.6926">
        <ele>638.93</ele>
        <time>2022-04-28T08:52:58Z</time>
      </trkpt>
      <trkpt lat="44.85982" lon="4.69242">
        <ele>641.82</ele>
        <time>2022-04-28T08:53:15Z</time>
      </trkpt>
      <trkpt lat="44.85991" lon="4.69222">
        <ele>646.62</ele>
        <time>2022-04-28T08:53:33Z</time>
      </trkpt>
      <trkpt lat="44.85994" lon="4.69209">
        <ele>651.43</ele>
        <time>2022-04-28T08:53:47Z</time>
      </trkpt>
      <trkpt lat="44.85996" lon="4.69194">
        <ele>658.16</ele>
        <time>2022-04-28T08:54:02Z</time>
      </trkpt>
      <trkpt lat="44.85999" lon="4.69171">
        <ele>666.33</ele>
        <time>2022-04-28T08:54:19Z</time>
      </trkpt>
      <trkpt lat="44.86005" lon="4.69146">
        <ele>666.33</ele>
        <time>2022-04-28T08:54:36Z</time>
      </trkpt>
      <trkpt lat="44.86009" lon="4.69125">
        <ele>667.77</ele>
        <time>2022-04-28T08:54:51Z</time>
      </trkpt>
      <trkpt lat="44.86011" lon="4.69106">
        <ele>668.25</ele>
        <time>2022-04-28T08:55:08Z</time>
      </trkpt>
      <trkpt lat="44.86011" lon="4.69104">
        <ele>664.89</ele>
        <time>2022-04-28T08:55:27Z</time>
      </trkpt>
      <trkpt lat="44.86013" lon="4.69101">
        <ele>662.01</ele>
        <time>2022-04-28T08:55:48Z</time>
      </trkpt>
      <trkpt lat="44.86014" lon="4.69097">
        <ele>661.04</ele>
        <time>2022-04-28T08:55:56Z</time>
      </trkpt>
      <trkpt lat="44.86016" lon="4.6907">
        <ele>661.52</ele>
        <time>2022-04-28T08:56:15Z</time>
      </trkpt>
      <trkpt lat="44.8602" lon="4.69051">
        <ele>663.45</ele>
        <time>2022-04-28T08:56:31Z</time>
      </trkpt>
      <trkpt lat="44.86025" lon="4.69032">
        <ele>665.37</ele>
        <time>2022-04-28T08:56:47Z</time>
      </trkpt>
      <trkpt lat="44.86027" lon="4.69013">
        <ele>670.66</ele>
        <time>2022-04-28T08:57:03Z</time>
      </trkpt>
      <trkpt lat="44.86026" lon="4.69003">
        <ele>670.66</ele>
        <time>2022-04-28T08:57:10Z</time>
      </trkpt>
      <trkpt lat="44.86026" lon="4.68995">
        <ele>670.66</ele>
        <time>2022-04-28T08:57:16Z</time>
      </trkpt>
      <trkpt lat="44.86025" lon="4.68989">
        <ele>670.66</ele>
        <time>2022-04-28T08:57:20Z</time>
      </trkpt>
      <trkpt lat="44.86023" lon="4.68965">
        <ele>671.14</ele>
        <time>2022-04-28T08:57:36Z</time>
      </trkpt>
      <trkpt lat="44.86022" lon="4.68945">
        <ele>672.58</ele>
        <time>2022-04-28T08:57:51Z</time>
      </trkpt>
      <trkpt lat="44.86019" lon="4.68926">
        <ele>677.39</ele>
        <time>2022-04-28T08:58:07Z</time>
      </trkpt>
      <trkpt lat="44.86015" lon="4.68915">
        <ele>680.75</ele>
        <time>2022-04-28T08:58:19Z</time>
      </trkpt>
      <trkpt lat="44.86009" lon="4.68892">
        <ele>683.63</ele>
        <time>2022-04-28T08:58:35Z</time>
      </trkpt>
      <trkpt lat="44.86004" lon="4.68874">
        <ele>684.6</ele>
        <time>2022-04-28T08:58:48Z</time>
      </trkpt>
      <trkpt lat="44.86002" lon="4.68853">
        <ele>687.48</ele>
        <time>2022-04-28T08:59:03Z</time>
      </trkpt>
      <trkpt lat="44.86" lon="4.68845">
        <ele>688.44</ele>
        <time>2022-04-28T08:59:09Z</time>
      </trkpt>
      <trkpt lat="44.85999" lon="4.6883">
        <ele>691.81</ele>
        <time>2022-04-28T08:59:19Z</time>
      </trkpt>
      <trkpt lat="44.85994" lon="4.68804">
        <ele>704.78</ele>
        <time>2022-04-28T08:59:36Z</time>
      </trkpt>
      <trkpt lat="44.85996" lon="4.68786">
        <ele>706.71</ele>
        <time>2022-04-28T08:59:47Z</time>
      </trkpt>
      <trkpt lat="44.86003" lon="4.68775">
        <ele>706.23</ele>
        <time>2022-04-28T08:59:58Z</time>
      </trkpt>
      <trkpt lat="44.8601" lon="4.68762">
        <ele>703.34</ele>
        <time>2022-04-28T09:00:10Z</time>
      </trkpt>
      <trkpt lat="44.86013" lon="4.68758">
        <ele>699.5</ele>
        <time>2022-04-28T09:00:28Z</time>
      </trkpt>
      <trkpt lat="44.86014" lon="4.68758">
        <ele>696.13</ele>
        <time>2022-04-28T09:00:47Z</time>
      </trkpt>
      <trkpt lat="44.8603" lon="4.68752">
        <ele>697.09</ele>
        <time>2022-04-28T09:01:01Z</time>
      </trkpt>
      <trkpt lat="44.86054" lon="4.68752">
        <ele>696.13</ele>
        <time>2022-04-28T09:01:19Z</time>
      </trkpt>
      <trkpt lat="44.86073" lon="4.68757">
        <ele>694.69</ele>
        <time>2022-04-28T09:01:33Z</time>
      </trkpt>
      <trkpt lat="44.86075" lon="4.68758">
        <ele>694.69</ele>
        <time>2022-04-28T09:01:34Z</time>
      </trkpt>
      <trkpt lat="44.86092" lon="4.68769">
        <ele>693.25</ele>
        <time>2022-04-28T09:01:49Z</time>
      </trkpt>
      <trkpt lat="44.86101" lon="4.68775">
        <ele>695.17</ele>
        <time>2022-04-28T09:01:58Z</time>
      </trkpt>
      <trkpt lat="44.86119" lon="4.6878">
        <ele>698.53</ele>
        <time>2022-04-28T09:02:14Z</time>
      </trkpt>
      <trkpt lat="44.86128" lon="4.68779">
        <ele>705.26</ele>
        <time>2022-04-28T09:02:22Z</time>
      </trkpt>
      <trkpt lat="44.86142" lon="4.68777">
        <ele>719.68</ele>
        <time>2022-04-28T09:02:35Z</time>
      </trkpt>
      <trkpt lat="44.86144" lon="4.68776">
        <ele>721.13</ele>
        <time>2022-04-28T09:02:36Z</time>
      </trkpt>
      <trkpt lat="44.86154" lon="4.68774">
        <ele>721.13</ele>
        <time>2022-04-28T09:02:44Z</time>
      </trkpt>
      <trkpt lat="44.86169" lon="4.68773">
        <ele>719.2</ele>
        <time>2022-04-28T09:02:57Z</time>
      </trkpt>
      <trkpt lat="44.86172" lon="4.6877">
        <ele>718.72</ele>
        <time>2022-04-28T09:03:00Z</time>
      </trkpt>
      <trkpt lat="44.86174" lon="4.68769">
        <ele>718.24</ele>
        <time>2022-04-28T09:03:02Z</time>
      </trkpt>
      <trkpt lat="44.86191" lon="4.68762">
        <ele>717.28</ele>
        <time>2022-04-28T09:03:15Z</time>
      </trkpt>
      <trkpt lat="44.86208" lon="4.68756">
        <ele>717.28</ele>
        <time>2022-04-28T09:03:28Z</time>
      </trkpt>
      <trkpt lat="44.86219" lon="4.68755">
        <ele>715.36</ele>
        <time>2022-04-28T09:03:36Z</time>
      </trkpt>
      <trkpt lat="44.86238" lon="4.68748">
        <ele>713.92</ele>
        <time>2022-04-28T09:03:50Z</time>
      </trkpt>
      <trkpt lat="44.86243" lon="4.68746">
        <ele>715.36</ele>
        <time>2022-04-28T09:03:54Z</time>
      </trkpt>
      <trkpt lat="44.86258" lon="4.68739">
        <ele>719.68</ele>
        <time>2022-04-28T09:04:06Z</time>
      </trkpt>
      <trkpt lat="44.86269" lon="4.68738">
        <ele>718.72</ele>
        <time>2022-04-28T09:04:15Z</time>
      </trkpt>
      <trkpt lat="44.8628" lon="4.68738">
        <ele>716.32</ele>
        <time>2022-04-28T09:04:24Z</time>
      </trkpt>
      <trkpt lat="44.86283" lon="4.68737">
        <ele>716.32</ele>
        <time>2022-04-28T09:04:27Z</time>
      </trkpt>
      <trkpt lat="44.86299" lon="4.68742">
        <ele>713.92</ele>
        <time>2022-04-28T09:04:39Z</time>
      </trkpt>
      <trkpt lat="44.86307" lon="4.68742">
        <ele>713.44</ele>
        <time>2022-04-28T09:04:46Z</time>
      </trkpt>
      <trkpt lat="44.86314" lon="4.68743">
        <ele>713.44</ele>
        <time>2022-04-28T09:04:51Z</time>
      </trkpt>
      <trkpt lat="44.86334" lon="4.6874">
        <ele>716.32</ele>
        <time>2022-04-28T09:05:07Z</time>
      </trkpt>
      <trkpt lat="44.86336" lon="4.68739">
        <ele>716.8</ele>
        <time>2022-04-28T09:05:09Z</time>
      </trkpt>
      <trkpt lat="44.8634" lon="4.68739">
        <ele>715.84</ele>
        <time>2022-04-28T09:05:12Z</time>
      </trkpt>
      <trkpt lat="44.86344" lon="4.68737">
        <ele>714.4</ele>
        <time>2022-04-28T09:05:24Z</time>
      </trkpt>
      <trkpt lat="44.86347" lon="4.68734">
        <ele>713.44</ele>
        <time>2022-04-28T09:05:32Z</time>
      </trkpt>
      <trkpt lat="44.86349" lon="4.68724">
        <ele>712.95</ele>
        <time>2022-04-28T09:05:40Z</time>
      </trkpt>
      <trkpt lat="44.86355" lon="4.687">
        <ele>711.51</ele>
        <time>2022-04-28T09:05:57Z</time>
      </trkpt>
      <trkpt lat="44.86357" lon="4.68693">
        <ele>710.55</ele>
        <time>2022-04-28T09:06:10Z</time>
      </trkpt>
      <trkpt lat="44.8636" lon="4.68684">
        <ele>710.55</ele>
        <time>2022-04-28T09:06:23Z</time>
      </trkpt>
      <trkpt lat="44.86364" lon="4.68658">
        <ele>708.15</ele>
        <time>2022-04-28T09:06:39Z</time>
      </trkpt>
      <trkpt lat="44.86367" lon="4.68643">
        <ele>706.71</ele>
        <time>2022-04-28T09:06:49Z</time>
      </trkpt>
      <trkpt lat="44.86369" lon="4.68617">
        <ele>703.34</ele>
        <time>2022-04-28T09:07:02Z</time>
      </trkpt>
      <trkpt lat="44.86375" lon="4.6859">
        <ele>699.5</ele>
        <time>2022-04-28T09:07:16Z</time>
      </trkpt>
      <trkpt lat="44.86378" lon="4.68558">
        <ele>699.02</ele>
        <time>2022-04-28T09:07:33Z</time>
      </trkpt>
      <trkpt lat="44.86379" lon="4.68553">
        <ele>699.98</ele>
        <time>2022-04-28T09:07:36Z</time>
      </trkpt>
      <trkpt lat="44.86375" lon="4.68536">
        <ele>708.15</ele>
        <time>2022-04-28T09:07:50Z</time>
      </trkpt>
      <trkpt lat="44.86373" lon="4.68527">
        <ele>709.11</ele>
        <time>2022-04-28T09:07:55Z</time>
      </trkpt>
      <trkpt lat="44.8637" lon="4.68486">
        <ele>709.11</ele>
        <time>2022-04-28T09:08:16Z</time>
      </trkpt>
      <trkpt lat="44.86384" lon="4.68454">
        <ele>709.11</ele>
        <time>2022-04-28T09:08:35Z</time>
      </trkpt>
      <trkpt lat="44.86396" lon="4.68429">
        <ele>709.11</ele>
        <time>2022-04-28T09:08:52Z</time>
      </trkpt>
      <trkpt lat="44.86398" lon="4.68404">
        <ele>706.71</ele>
        <time>2022-04-28T09:09:05Z</time>
      </trkpt>
      <trkpt lat="44.86395" lon="4.68363">
        <ele>705.26</ele>
        <time>2022-04-28T09:09:26Z</time>
      </trkpt>
      <trkpt lat="44.86395" lon="4.68343">
        <ele>703.82</ele>
        <time>2022-04-28T09:09:36Z</time>
      </trkpt>
      <trkpt lat="44.86384" lon="4.68321">
        <ele>701.9</ele>
        <time>2022-04-28T09:09:52Z</time>
      </trkpt>
      <trkpt lat="44.86387" lon="4.68309">
        <ele>692.77</ele>
        <time>2022-04-28T09:10:03Z</time>
      </trkpt>
      <trkpt lat="44.86375" lon="4.68296">
        <ele>691.81</ele>
        <time>2022-04-28T09:10:14Z</time>
      </trkpt>
      <trkpt lat="44.8636" lon="4.68273">
        <ele>691.81</ele>
        <time>2022-04-28T09:10:32Z</time>
      </trkpt>
      <trkpt lat="44.86344" lon="4.6825">
        <ele>690.84</ele>
        <time>2022-04-28T09:10:48Z</time>
      </trkpt>
      <trkpt lat="44.86343" lon="4.68243">
        <ele>687.48</ele>
        <time>2022-04-28T09:11:01Z</time>
      </trkpt>
      <trkpt lat="44.86346" lon="4.68238">
        <ele>680.75</ele>
        <time>2022-04-28T09:11:16Z</time>
      </trkpt>
      <trkpt lat="44.86341" lon="4.68224">
        <ele>676.42</ele>
        <time>2022-04-28T09:11:29Z</time>
      </trkpt>
      <trkpt lat="44.86341" lon="4.68224">
        <ele>673.54</ele>
        <time>2022-04-28T09:11:44Z</time>
      </trkpt>
      <trkpt lat="44.86341" lon="4.68222">
        <ele>672.58</ele>
        <time>2022-04-28T09:11:49Z</time>
      </trkpt>
      <trkpt lat="44.86326" lon="4.68204">
        <ele>668.25</ele>
        <time>2022-04-28T09:12:05Z</time>
      </trkpt>
      <trkpt lat="44.86315" lon="4.68195">
        <ele>665.37</ele>
        <time>2022-04-28T09:12:15Z</time>
      </trkpt>
      <trkpt lat="44.86298" lon="4.68173">
        <ele>662.01</ele>
        <time>2022-04-28T09:12:33Z</time>
      </trkpt>
      <trkpt lat="44.86283" lon="4.68147">
        <ele>664.89</ele>
        <time>2022-04-28T09:12:50Z</time>
      </trkpt>
      <trkpt lat="44.8627" lon="4.68121">
        <ele>667.29</ele>
        <time>2022-04-28T09:13:07Z</time>
      </trkpt>
      <trkpt lat="44.86269" lon="4.68087">
        <ele>673.54</ele>
        <time>2022-04-28T09:13:25Z</time>
      </trkpt>
      <trkpt lat="44.86271" lon="4.68084">
        <ele>674.5</ele>
        <time>2022-04-28T09:13:27Z</time>
      </trkpt>
      <trkpt lat="44.86286" lon="4.68071">
        <ele>681.71</ele>
        <time>2022-04-28T09:13:44Z</time>
      </trkpt>
      <trkpt lat="44.86286" lon="4.68069">
        <ele>682.19</ele>
        <time>2022-04-28T09:13:45Z</time>
      </trkpt>
      <trkpt lat="44.86277" lon="4.68048">
        <ele>685.08</ele>
        <time>2022-04-28T09:13:59Z</time>
      </trkpt>
      <trkpt lat="44.8626" lon="4.68025">
        <ele>687</ele>
        <time>2022-04-28T09:14:15Z</time>
      </trkpt>
      <trkpt lat="44.86239" lon="4.68017">
        <ele>689.4</ele>
        <time>2022-04-28T09:14:31Z</time>
      </trkpt>
      <trkpt lat="44.8622" lon="4.68007">
        <ele>680.27</ele>
        <time>2022-04-28T09:14:49Z</time>
      </trkpt>
      <trkpt lat="44.86205" lon="4.67987">
        <ele>677.39</ele>
        <time>2022-04-28T09:15:04Z</time>
      </trkpt>
      <trkpt lat="44.86194" lon="4.6797">
        <ele>671.62</ele>
        <time>2022-04-28T09:15:19Z</time>
      </trkpt>
      <trkpt lat="44.8619" lon="4.67955">
        <ele>661.04</ele>
        <time>2022-04-28T09:15:28Z</time>
      </trkpt>
      <trkpt lat="44.86171" lon="4.67937">
        <ele>657.2</ele>
        <time>2022-04-28T09:15:46Z</time>
      </trkpt>
      <trkpt lat="44.86166" lon="4.67932">
        <ele>656.72</ele>
        <time>2022-04-28T09:15:52Z</time>
      </trkpt>
      <trkpt lat="44.86148" lon="4.6792">
        <ele>660.56</ele>
        <time>2022-04-28T09:16:07Z</time>
      </trkpt>
      <trkpt lat="44.86132" lon="4.67911">
        <ele>665.37</ele>
        <time>2022-04-28T09:16:22Z</time>
      </trkpt>
      <trkpt lat="44.86127" lon="4.6791">
        <ele>666.33</ele>
        <time>2022-04-28T09:16:25Z</time>
      </trkpt>
      <trkpt lat="44.86096" lon="4.67899">
        <ele>670.66</ele>
        <time>2022-04-28T09:16:39Z</time>
      </trkpt>
      <trkpt lat="44.86086" lon="4.67892">
        <ele>671.62</ele>
        <time>2022-04-28T09:16:47Z</time>
      </trkpt>
      <trkpt lat="44.86068" lon="4.67877">
        <ele>671.14</ele>
        <time>2022-04-28T09:17:02Z</time>
      </trkpt>
      <trkpt lat="44.86068" lon="4.67876">
        <ele>671.14</ele>
        <time>2022-04-28T09:17:03Z</time>
      </trkpt>
      <trkpt lat="44.86063" lon="4.67869">
        <ele>669.7</ele>
        <time>2022-04-28T09:17:09Z</time>
      </trkpt>
      <trkpt lat="44.86043" lon="4.6786">
        <ele>664.89</ele>
        <time>2022-04-28T09:17:23Z</time>
      </trkpt>
      <trkpt lat="44.86033" lon="4.67852">
        <ele>660.56</ele>
        <time>2022-04-28T09:17:36Z</time>
      </trkpt>
      <trkpt lat="44.86026" lon="4.67847">
        <ele>658.16</ele>
        <time>2022-04-28T09:17:51Z</time>
      </trkpt>
      <trkpt lat="44.86012" lon="4.67843">
        <ele>657.68</ele>
        <time>2022-04-28T09:18:06Z</time>
      </trkpt>
      <trkpt lat="44.85997" lon="4.67845">
        <ele>660.08</ele>
        <time>2022-04-28T09:18:20Z</time>
      </trkpt>
      <trkpt lat="44.85988" lon="4.67846">
        <ele>666.33</ele>
        <time>2022-04-28T09:18:33Z</time>
      </trkpt>
      <trkpt lat="44.85987" lon="4.67846">
        <ele>667.77</ele>
        <time>2022-04-28T09:18:36Z</time>
      </trkpt>
      <trkpt lat="44.85974" lon="4.67846">
        <ele>669.22</ele>
        <time>2022-04-28T09:18:50Z</time>
      </trkpt>
      <trkpt lat="44.85945" lon="4.6784">
        <ele>662.97</ele>
        <time>2022-04-28T09:19:04Z</time>
      </trkpt>
      <trkpt lat="44.85937" lon="4.67839">
        <ele>661.52</ele>
        <time>2022-04-28T09:19:07Z</time>
      </trkpt>
      <trkpt lat="44.85931" lon="4.67838">
        <ele>662.01</ele>
        <time>2022-04-28T09:19:09Z</time>
      </trkpt>
      <trkpt lat="44.85925" lon="4.67839">
        <ele>662.01</ele>
        <time>2022-04-28T09:19:10Z</time>
      </trkpt>
      <trkpt lat="44.85923" lon="4.67839">
        <ele>662.01</ele>
        <time>2022-04-28T09:19:11Z</time>
      </trkpt>
      <trkpt lat="44.85911" lon="4.67838">
        <ele>661.04</ele>
        <time>2022-04-28T09:19:12Z</time>
      </trkpt>
      <trkpt lat="44.8591" lon="4.67838">
        <ele>660.56</ele>
        <time>2022-04-28T09:19:13Z</time>
      </trkpt>
      <trkpt lat="44.85903" lon="4.67838">
        <ele>660.08</ele>
        <time>2022-04-28T09:19:14Z</time>
      </trkpt>
      <trkpt lat="44.85897" lon="4.67837">
        <ele>658.64</ele>
        <time>2022-04-28T09:19:15Z</time>
      </trkpt>
      <trkpt lat="44.85894" lon="4.67837">
        <ele>657.68</ele>
        <time>2022-04-28T09:19:16Z</time>
      </trkpt>
      <trkpt lat="44.8589" lon="4.67837">
        <ele>657.2</ele>
        <time>2022-04-28T09:19:17Z</time>
      </trkpt>
      <trkpt lat="44.85864" lon="4.67835">
        <ele>650.47</ele>
        <time>2022-04-28T09:19:28Z</time>
      </trkpt>
      <trkpt lat="44.85845" lon="4.67829">
        <ele>643.26</ele>
        <time>2022-04-28T09:19:42Z</time>
      </trkpt>
      <trkpt lat="44.85823" lon="4.67821">
        <ele>624.99</ele>
        <time>2022-04-28T09:20:01Z</time>
      </trkpt>
      <trkpt lat="44.85806" lon="4.67816">
        <ele>614.9</ele>
        <time>2022-04-28T09:20:12Z</time>
      </trkpt>
      <trkpt lat="44.85787" lon="4.67813">
        <ele>600.96</ele>
        <time>2022-04-28T09:20:26Z</time>
      </trkpt>
      <trkpt lat="44.85769" lon="4.67807">
        <ele>589.43</ele>
        <time>2022-04-28T09:20:42Z</time>
      </trkpt>
      <trkpt lat="44.85754" lon="4.67807">
        <ele>583.66</ele>
        <time>2022-04-28T09:20:53Z</time>
      </trkpt>
      <trkpt lat="44.85743" lon="4.6781">
        <ele>585.1</ele>
        <time>2022-04-28T09:21:00Z</time>
      </trkpt>
      <trkpt lat="44.85742" lon="4.67811">
        <ele>585.1</ele>
        <time>2022-04-28T09:21:01Z</time>
      </trkpt>
      <trkpt lat="44.85737" lon="4.67812">
        <ele>585.58</ele>
        <time>2022-04-28T09:21:04Z</time>
      </trkpt>
      <trkpt lat="44.85735" lon="4.67812">
        <ele>585.58</ele>
        <time>2022-04-28T09:21:05Z</time>
      </trkpt>
      <trkpt lat="44.85734" lon="4.67812">
        <ele>585.58</ele>
        <time>2022-04-28T09:21:06Z</time>
      </trkpt>
      <trkpt lat="44.85732" lon="4.67812">
        <ele>586.06</ele>
        <time>2022-04-28T09:21:07Z</time>
      </trkpt>
      <trkpt lat="44.85731" lon="4.67812">
        <ele>586.06</ele>
        <time>2022-04-28T09:21:08Z</time>
      </trkpt>
      <trkpt lat="44.85716" lon="4.67811">
        <ele>586.06</ele>
        <time>2022-04-28T09:21:20Z</time>
      </trkpt>
      <trkpt lat="44.85698" lon="4.67809">
        <ele>582.22</ele>
        <time>2022-04-28T09:21:34Z</time>
      </trkpt>
      <trkpt lat="44.85686" lon="4.67803">
        <ele>577.89</ele>
        <time>2022-04-28T09:21:46Z</time>
      </trkpt>
      <trkpt lat="44.8567" lon="4.678">
        <ele>577.41</ele>
        <time>2022-04-28T09:21:59Z</time>
      </trkpt>
      <trkpt lat="44.85658" lon="4.67804">
        <ele>579.81</ele>
        <time>2022-04-28T09:22:11Z</time>
      </trkpt>
      <trkpt lat="44.85639" lon="4.67806">
        <ele>579.81</ele>
        <time>2022-04-28T09:22:24Z</time>
      </trkpt>
      <trkpt lat="44.85625" lon="4.67804">
        <ele>575.49</ele>
        <time>2022-04-28T09:22:39Z</time>
      </trkpt>
      <trkpt lat="44.85612" lon="4.67804">
        <ele>574.04</ele>
        <time>2022-04-28T09:22:54Z</time>
      </trkpt>
      <trkpt lat="44.85595" lon="4.6781">
        <ele>573.08</ele>
        <time>2022-04-28T09:23:08Z</time>
      </trkpt>
      <trkpt lat="44.85576" lon="4.67821">
        <ele>572.6</ele>
        <time>2022-04-28T09:23:24Z</time>
      </trkpt>
      <trkpt lat="44.85561" lon="4.67831">
        <ele>573.56</ele>
        <time>2022-04-28T09:23:38Z</time>
      </trkpt>
      <trkpt lat="44.85551" lon="4.67835">
        <ele>574.04</ele>
        <time>2022-04-28T09:23:46Z</time>
      </trkpt>
      <trkpt lat="44.85549" lon="4.67835">
        <ele>574.04</ele>
        <time>2022-04-28T09:23:47Z</time>
      </trkpt>
      <trkpt lat="44.85524" lon="4.67838">
        <ele>572.12</ele>
        <time>2022-04-28T09:24:03Z</time>
      </trkpt>
      <trkpt lat="44.85515" lon="4.67837">
        <ele>571.16</ele>
        <time>2022-04-28T09:24:10Z</time>
      </trkpt>
      <trkpt lat="44.85513" lon="4.67836">
        <ele>571.16</ele>
        <time>2022-04-28T09:24:11Z</time>
      </trkpt>
      <trkpt lat="44.85486" lon="4.67827">
        <ele>567.8</ele>
        <time>2022-04-28T09:24:28Z</time>
      </trkpt>
      <trkpt lat="44.85459" lon="4.6781">
        <ele>566.35</ele>
        <time>2022-04-28T09:24:45Z</time>
      </trkpt>
      <trkpt lat="44.85437" lon="4.67796">
        <ele>567.32</ele>
        <time>2022-04-28T09:25:04Z</time>
      </trkpt>
      <trkpt lat="44.8542" lon="4.67798">
        <ele>568.76</ele>
        <time>2022-04-28T09:25:18Z</time>
      </trkpt>
      <trkpt lat="44.85402" lon="4.67807">
        <ele>569.24</ele>
        <time>2022-04-28T09:25:34Z</time>
      </trkpt>
      <trkpt lat="44.85379" lon="4.67816">
        <ele>569.72</ele>
        <time>2022-04-28T09:25:51Z</time>
      </trkpt>
      <trkpt lat="44.85353" lon="4.67816">
        <ele>568.76</ele>
        <time>2022-04-28T09:26:08Z</time>
      </trkpt>
      <trkpt lat="44.85332" lon="4.67809">
        <ele>567.8</ele>
        <time>2022-04-28T09:26:23Z</time>
      </trkpt>
      <trkpt lat="44.85304" lon="4.67795">
        <ele>566.35</ele>
        <time>2022-04-28T09:26:43Z</time>
      </trkpt>
      <trkpt lat="44.85282" lon="4.67785">
        <ele>565.39</ele>
        <time>2022-04-28T09:27:00Z</time>
      </trkpt>
      <trkpt lat="44.8526" lon="4.67787">
        <ele>565.87</ele>
        <time>2022-04-28T09:27:16Z</time>
      </trkpt>
      <trkpt lat="44.85237" lon="4.67797">
        <ele>565.39</ele>
        <time>2022-04-28T09:27:34Z</time>
      </trkpt>
      <trkpt lat="44.85216" lon="4.67807">
        <ele>565.87</ele>
        <time>2022-04-28T09:27:49Z</time>
      </trkpt>
      <trkpt lat="44.85201" lon="4.67815">
        <ele>568.28</ele>
        <time>2022-04-28T09:28:03Z</time>
      </trkpt>
      <trkpt lat="44.8518" lon="4.67823">
        <ele>571.16</ele>
        <time>2022-04-28T09:28:19Z</time>
      </trkpt>
      <trkpt lat="44.85159" lon="4.67825">
        <ele>573.56</ele>
        <time>2022-04-28T09:28:35Z</time>
      </trkpt>
      <trkpt lat="44.8514" lon="4.67824">
        <ele>575.01</ele>
        <time>2022-04-28T09:28:50Z</time>
      </trkpt>
      <trkpt lat="44.8512" lon="4.67827">
        <ele>576.93</ele>
        <time>2022-04-28T09:29:04Z</time>
      </trkpt>
      <trkpt lat="44.851" lon="4.67829">
        <ele>579.33</ele>
        <time>2022-04-28T09:29:20Z</time>
      </trkpt>
      <trkpt lat="44.8508" lon="4.67825">
        <ele>579.81</ele>
        <time>2022-04-28T09:29:34Z</time>
      </trkpt>
      <trkpt lat="44.85079" lon="4.67826">
        <ele>579.81</ele>
        <time>2022-04-28T09:29:35Z</time>
      </trkpt>
      <trkpt lat="44.85077" lon="4.67826">
        <ele>579.81</ele>
        <time>2022-04-28T09:29:36Z</time>
      </trkpt>
      <trkpt lat="44.85076" lon="4.67826">
        <ele>579.33</ele>
        <time>2022-04-28T09:29:37Z</time>
      </trkpt>
      <trkpt lat="44.85075" lon="4.67827">
        <ele>579.33</ele>
        <time>2022-04-28T09:29:38Z</time>
      </trkpt>
      <trkpt lat="44.8507" lon="4.67829">
        <ele>578.85</ele>
        <time>2022-04-28T09:29:42Z</time>
      </trkpt>
      <trkpt lat="44.8507" lon="4.6783">
        <ele>578.85</ele>
        <time>2022-04-28T09:29:43Z</time>
      </trkpt>
      <trkpt lat="44.85067" lon="4.67833">
        <ele>577.89</ele>
        <time>2022-04-28T09:29:58Z</time>
      </trkpt>
      <trkpt lat="44.85067" lon="4.67832">
        <ele>577.89</ele>
        <time>2022-04-28T09:30:24Z</time>
      </trkpt>
      <trkpt lat="44.85067" lon="4.67834">
        <ele>578.85</ele>
        <time>2022-04-28T09:30:32Z</time>
      </trkpt>
      <trkpt lat="44.85067" lon="4.67836">
        <ele>579.33</ele>
        <time>2022-04-28T09:30:33Z</time>
      </trkpt>
      <trkpt lat="44.85067" lon="4.67838">
        <ele>579.33</ele>
        <time>2022-04-28T09:30:34Z</time>
      </trkpt>
      <trkpt lat="44.85067" lon="4.6784">
        <ele>579.33</ele>
        <time>2022-04-28T09:30:35Z</time>
      </trkpt>
      <trkpt lat="44.85067" lon="4.67842">
        <ele>579.81</ele>
        <time>2022-04-28T09:30:36Z</time>
      </trkpt>
      <trkpt lat="44.85067" lon="4.67844">
        <ele>579.81</ele>
        <time>2022-04-28T09:30:37Z</time>
      </trkpt>
      <trkpt lat="44.85067" lon="4.67845">
        <ele>580.29</ele>
        <time>2022-04-28T09:30:38Z</time>
      </trkpt>
      <trkpt lat="44.85066" lon="4.67847">
        <ele>580.29</ele>
        <time>2022-04-28T09:30:39Z</time>
      </trkpt>
      <trkpt lat="44.85066" lon="4.67848">
        <ele>580.29</ele>
        <time>2022-04-28T09:30:40Z</time>
      </trkpt>
      <trkpt lat="44.85065" lon="4.6785">
        <ele>580.29</ele>
        <time>2022-04-28T09:30:41Z</time>
      </trkpt>
      <trkpt lat="44.85055" lon="4.6787">
        <ele>581.73</ele>
        <time>2022-04-28T09:30:57Z</time>
      </trkpt>
      <trkpt lat="44.85052" lon="4.67873">
        <ele>581.73</ele>
        <time>2022-04-28T09:31:01Z</time>
      </trkpt>
      <trkpt lat="44.85045" lon="4.67878">
        <ele>581.25</ele>
        <time>2022-04-28T09:31:10Z</time>
      </trkpt>
      <trkpt lat="44.85045" lon="4.6788">
        <ele>580.77</ele>
        <time>2022-04-28T09:31:11Z</time>
      </trkpt>
      <trkpt lat="44.85044" lon="4.67881">
        <ele>580.77</ele>
        <time>2022-04-28T09:31:12Z</time>
      </trkpt>
      <trkpt lat="44.85044" lon="4.67882">
        <ele>580.77</ele>
        <time>2022-04-28T09:31:13Z</time>
      </trkpt>
      <trkpt lat="44.85043" lon="4.67884">
        <ele>580.77</ele>
        <time>2022-04-28T09:31:14Z</time>
      </trkpt>
      <trkpt lat="44.85043" lon="4.67886">
        <ele>580.77</ele>
        <time>2022-04-28T09:31:15Z</time>
      </trkpt>
      <trkpt lat="44.85037" lon="4.67893">
        <ele>579.33</ele>
        <time>2022-04-28T09:31:27Z</time>
      </trkpt>
      <trkpt lat="44.8503" lon="4.67902">
        <ele>577.41</ele>
        <time>2022-04-28T09:31:38Z</time>
      </trkpt>
      <trkpt lat="44.85029" lon="4.67903">
        <ele>576.93</ele>
        <time>2022-04-28T09:31:39Z</time>
      </trkpt>
      <trkpt lat="44.85017" lon="4.67931">
        <ele>578.85</ele>
        <time>2022-04-28T09:31:58Z</time>
      </trkpt>
      <trkpt lat="44.85014" lon="4.67934">
        <ele>579.33</ele>
        <time>2022-04-28T09:32:01Z</time>
      </trkpt>
      <trkpt lat="44.85011" lon="4.67938">
        <ele>580.29</ele>
        <time>2022-04-28T09:32:04Z</time>
      </trkpt>
      <trkpt lat="44.85003" lon="4.67955">
        <ele>577.41</ele>
        <time>2022-04-28T09:32:17Z</time>
      </trkpt>
      <trkpt lat="44.84997" lon="4.67964">
        <ele>575.97</ele>
        <time>2022-04-28T09:32:24Z</time>
      </trkpt>
      <trkpt lat="44.84993" lon="4.67972">
        <ele>574.53</ele>
        <time>2022-04-28T09:32:29Z</time>
      </trkpt>
      <trkpt lat="44.84994" lon="4.67996">
        <ele>574.53</ele>
        <time>2022-04-28T09:32:43Z</time>
      </trkpt>
      <trkpt lat="44.84992" lon="4.68012">
        <ele>575.97</ele>
        <time>2022-04-28T09:32:55Z</time>
      </trkpt>
      <trkpt lat="44.84985" lon="4.68036">
        <ele>575.49</ele>
        <time>2022-04-28T09:33:10Z</time>
      </trkpt>
      <trkpt lat="44.84985" lon="4.68037">
        <ele>575.49</ele>
        <time>2022-04-28T09:33:11Z</time>
      </trkpt>
      <trkpt lat="44.84976" lon="4.68056">
        <ele>575.01</ele>
        <time>2022-04-28T09:33:23Z</time>
      </trkpt>
      <trkpt lat="44.84965" lon="4.68065">
        <ele>571.64</ele>
        <time>2022-04-28T09:33:32Z</time>
      </trkpt>
      <trkpt lat="44.84958" lon="4.6807">
        <ele>567.32</ele>
        <time>2022-04-28T09:33:37Z</time>
      </trkpt>
      <trkpt lat="44.84945" lon="4.6807">
        <ele>563.95</ele>
        <time>2022-04-28T09:33:47Z</time>
      </trkpt>
      <trkpt lat="44.84942" lon="4.68072">
        <ele>562.99</ele>
        <time>2022-04-28T09:33:49Z</time>
      </trkpt>
      <trkpt lat="44.84936" lon="4.68074">
        <ele>562.03</ele>
        <time>2022-04-28T09:33:55Z</time>
      </trkpt>
      <trkpt lat="44.84924" lon="4.68073">
        <ele>561.07</ele>
        <time>2022-04-28T09:34:04Z</time>
      </trkpt>
      <trkpt lat="44.84907" lon="4.68075">
        <ele>560.59</ele>
        <time>2022-04-28T09:34:16Z</time>
      </trkpt>
      <trkpt lat="44.8489" lon="4.68075">
        <ele>562.51</ele>
        <time>2022-04-28T09:34:29Z</time>
      </trkpt>
      <trkpt lat="44.8487" lon="4.68079">
        <ele>564.43</ele>
        <time>2022-04-28T09:34:43Z</time>
      </trkpt>
      <trkpt lat="44.84846" lon="4.68082">
        <ele>565.39</ele>
        <time>2022-04-28T09:34:58Z</time>
      </trkpt>
      <trkpt lat="44.84827" lon="4.68085">
        <ele>570.2</ele>
        <time>2022-04-28T09:35:12Z</time>
      </trkpt>
      <trkpt lat="44.84822" lon="4.68085">
        <ele>571.64</ele>
        <time>2022-04-28T09:35:16Z</time>
      </trkpt>
      <trkpt lat="44.84813" lon="4.68087">
        <ele>574.53</ele>
        <time>2022-04-28T09:35:25Z</time>
      </trkpt>
      <trkpt lat="44.84797" lon="4.68089">
        <ele>575.97</ele>
        <time>2022-04-28T09:35:39Z</time>
      </trkpt>
      <trkpt lat="44.84792" lon="4.68092">
        <ele>573.56</ele>
        <time>2022-04-28T09:35:44Z</time>
      </trkpt>
      <trkpt lat="44.8478" lon="4.68091">
        <ele>571.64</ele>
        <time>2022-04-28T09:35:52Z</time>
      </trkpt>
      <trkpt lat="44.84773" lon="4.68091">
        <ele>570.2</ele>
        <time>2022-04-28T09:35:56Z</time>
      </trkpt>
      <trkpt lat="44.84766" lon="4.68096">
        <ele>568.76</ele>
        <time>2022-04-28T09:36:01Z</time>
      </trkpt>
      <trkpt lat="44.84748" lon="4.68102">
        <ele>564.43</ele>
        <time>2022-04-28T09:36:15Z</time>
      </trkpt>
      <trkpt lat="44.84736" lon="4.6811">
        <ele>562.03</ele>
        <time>2022-04-28T09:36:25Z</time>
      </trkpt>
      <trkpt lat="44.84726" lon="4.68115">
        <ele>563.47</ele>
        <time>2022-04-28T09:36:34Z</time>
      </trkpt>
      <trkpt lat="44.84713" lon="4.68128">
        <ele>568.76</ele>
        <time>2022-04-28T09:36:49Z</time>
      </trkpt>
      <trkpt lat="44.84711" lon="4.68136">
        <ele>572.12</ele>
        <time>2022-04-28T09:36:56Z</time>
      </trkpt>
      <trkpt lat="44.8471" lon="4.68141">
        <ele>573.56</ele>
        <time>2022-04-28T09:36:59Z</time>
      </trkpt>
      <trkpt lat="44.84698" lon="4.68154">
        <ele>575.01</ele>
        <time>2022-04-28T09:37:11Z</time>
      </trkpt>
      <trkpt lat="44.84685" lon="4.68169">
        <ele>575.01</ele>
        <time>2022-04-28T09:37:22Z</time>
      </trkpt>
      <trkpt lat="44.84684" lon="4.6817">
        <ele>575.01</ele>
        <time>2022-04-28T09:37:23Z</time>
      </trkpt>
      <trkpt lat="44.84681" lon="4.68173">
        <ele>575.01</ele>
        <time>2022-04-28T09:37:26Z</time>
      </trkpt>
      <trkpt lat="44.8467" lon="4.68181">
        <ele>575.01</ele>
        <time>2022-04-28T09:37:36Z</time>
      </trkpt>
      <trkpt lat="44.84651" lon="4.68191">
        <ele>574.04</ele>
        <time>2022-04-28T09:37:50Z</time>
      </trkpt>
      <trkpt lat="44.84645" lon="4.68195">
        <ele>573.56</ele>
        <time>2022-04-28T09:37:55Z</time>
      </trkpt>
      <trkpt lat="44.8464" lon="4.68197">
        <ele>573.56</ele>
        <time>2022-04-28T09:37:59Z</time>
      </trkpt>
      <trkpt lat="44.84625" lon="4.68209">
        <ele>572.6</ele>
        <time>2022-04-28T09:38:12Z</time>
      </trkpt>
      <trkpt lat="44.84624" lon="4.6821">
        <ele>572.6</ele>
        <time>2022-04-28T09:38:13Z</time>
      </trkpt>
      <trkpt lat="44.84609" lon="4.6822">
        <ele>569.72</ele>
        <time>2022-04-28T09:38:26Z</time>
      </trkpt>
      <trkpt lat="44.84594" lon="4.68229">
        <ele>564.43</ele>
        <time>2022-04-28T09:38:37Z</time>
      </trkpt>
      <trkpt lat="44.84574" lon="4.68231">
        <ele>559.14</ele>
        <time>2022-04-28T09:38:49Z</time>
      </trkpt>
      <trkpt lat="44.84554" lon="4.68236">
        <ele>556.26</ele>
        <time>2022-04-28T09:39:03Z</time>
      </trkpt>
      <trkpt lat="44.84537" lon="4.6824">
        <ele>555.3</ele>
        <time>2022-04-28T09:39:16Z</time>
      </trkpt>
      <trkpt lat="44.84522" lon="4.68244">
        <ele>553.38</ele>
        <time>2022-04-28T09:39:28Z</time>
      </trkpt>
      <trkpt lat="44.84507" lon="4.6825">
        <ele>551.93</ele>
        <time>2022-04-28T09:39:40Z</time>
      </trkpt>
      <trkpt lat="44.84492" lon="4.68254">
        <ele>549.05</ele>
        <time>2022-04-28T09:39:52Z</time>
      </trkpt>
      <trkpt lat="44.84481" lon="4.68254">
        <ele>548.09</ele>
        <time>2022-04-28T09:40:03Z</time>
      </trkpt>
      <trkpt lat="44.84473" lon="4.68256">
        <ele>546.65</ele>
        <time>2022-04-28T09:40:12Z</time>
      </trkpt>
      <trkpt lat="44.84456" lon="4.68257">
        <ele>547.13</ele>
        <time>2022-04-28T09:40:26Z</time>
      </trkpt>
      <trkpt lat="44.84445" lon="4.68257">
        <ele>545.69</ele>
        <time>2022-04-28T09:40:37Z</time>
      </trkpt>
      <trkpt lat="44.84427" lon="4.68258">
        <ele>542.32</ele>
        <time>2022-04-28T09:40:50Z</time>
      </trkpt>
      <trkpt lat="44.84408" lon="4.6826">
        <ele>539.92</ele>
        <time>2022-04-28T09:41:03Z</time>
      </trkpt>
      <trkpt lat="44.84393" lon="4.68261">
        <ele>538.48</ele>
        <time>2022-04-28T09:41:15Z</time>
      </trkpt>
      <trkpt lat="44.84387" lon="4.68261">
        <ele>537.51</ele>
        <time>2022-04-28T09:41:22Z</time>
      </trkpt>
      <trkpt lat="44.8437" lon="4.68268">
        <ele>533.67</ele>
        <time>2022-04-28T09:41:36Z</time>
      </trkpt>
      <trkpt lat="44.84355" lon="4.68271">
        <ele>529.82</ele>
        <time>2022-04-28T09:41:49Z</time>
      </trkpt>
      <trkpt lat="44.84335" lon="4.68275">
        <ele>524.54</ele>
        <time>2022-04-28T09:42:03Z</time>
      </trkpt>
      <trkpt lat="44.84316" lon="4.68275">
        <ele>521.17</ele>
        <time>2022-04-28T09:42:18Z</time>
      </trkpt>
      <trkpt lat="44.84303" lon="4.68272">
        <ele>519.73</ele>
        <time>2022-04-28T09:42:30Z</time>
      </trkpt>
      <trkpt lat="44.84285" lon="4.68272">
        <ele>516.85</ele>
        <time>2022-04-28T09:42:43Z</time>
      </trkpt>
      <trkpt lat="44.8428" lon="4.68273">
        <ele>516.37</ele>
        <time>2022-04-28T09:42:46Z</time>
      </trkpt>
      <trkpt lat="44.84275" lon="4.6827">
        <ele>515.4</ele>
        <time>2022-04-28T09:42:49Z</time>
      </trkpt>
      <trkpt lat="44.8426" lon="4.68269">
        <ele>515.4</ele>
        <time>2022-04-28T09:43:01Z</time>
      </trkpt>
      <trkpt lat="44.84238" lon="4.6826">
        <ele>513.48</ele>
        <time>2022-04-28T09:43:15Z</time>
      </trkpt>
      <trkpt lat="44.84218" lon="4.68257">
        <ele>508.67</ele>
        <time>2022-04-28T09:43:29Z</time>
      </trkpt>
      <trkpt lat="44.84197" lon="4.68254">
        <ele>503.39</ele>
        <time>2022-04-28T09:43:42Z</time>
      </trkpt>
      <trkpt lat="44.84193" lon="4.68254">
        <ele>501.95</ele>
        <time>2022-04-28T09:43:44Z</time>
      </trkpt>
      <trkpt lat="44.84176" lon="4.68251">
        <ele>499.06</ele>
        <time>2022-04-28T09:43:57Z</time>
      </trkpt>
      <trkpt lat="44.84159" lon="4.68252">
        <ele>499.06</ele>
        <time>2022-04-28T09:44:08Z</time>
      </trkpt>
      <trkpt lat="44.84148" lon="4.68249">
        <ele>497.62</ele>
        <time>2022-04-28T09:44:15Z</time>
      </trkpt>
      <trkpt lat="44.8413" lon="4.68242">
        <ele>496.18</ele>
        <time>2022-04-28T09:44:29Z</time>
      </trkpt>
      <trkpt lat="44.84114" lon="4.68244">
        <ele>492.81</ele>
        <time>2022-04-28T09:44:42Z</time>
      </trkpt>
      <trkpt lat="44.84095" lon="4.68247">
        <ele>489.93</ele>
        <time>2022-04-28T09:44:58Z</time>
      </trkpt>
      <trkpt lat="44.84083" lon="4.68259">
        <ele>489.93</ele>
        <time>2022-04-28T09:45:11Z</time>
      </trkpt>
      <trkpt lat="44.84068" lon="4.68265">
        <ele>486.08</ele>
        <time>2022-04-28T09:45:22Z</time>
      </trkpt>
      <trkpt lat="44.84049" lon="4.68277">
        <ele>484.64</ele>
        <time>2022-04-28T09:45:35Z</time>
      </trkpt>
      <trkpt lat="44.84046" lon="4.6828">
        <ele>484.16</ele>
        <time>2022-04-28T09:45:37Z</time>
      </trkpt>
      <trkpt lat="44.84034" lon="4.6831">
        <ele>479.35</ele>
        <time>2022-04-28T09:45:53Z</time>
      </trkpt>
      <trkpt lat="44.84027" lon="4.68324">
        <ele>477.43</ele>
        <time>2022-04-28T09:46:01Z</time>
      </trkpt>
      <trkpt lat="44.84014" lon="4.68352">
        <ele>477.91</ele>
        <time>2022-04-28T09:46:19Z</time>
      </trkpt>
      <trkpt lat="44.84008" lon="4.68364">
        <ele>472.63</ele>
        <time>2022-04-28T09:46:34Z</time>
      </trkpt>
      <trkpt lat="44.84006" lon="4.68375">
        <ele>470.22</ele>
        <time>2022-04-28T09:47:06Z</time>
      </trkpt>
      <trkpt lat="44.84005" lon="4.68379">
        <ele>469.74</ele>
        <time>2022-04-28T09:47:10Z</time>
      </trkpt>
      <trkpt lat="44.84005" lon="4.68397">
        <ele>473.59</ele>
        <time>2022-04-28T09:47:23Z</time>
      </trkpt>
      <trkpt lat="44.84007" lon="4.68412">
        <ele>475.03</ele>
        <time>2022-04-28T09:47:31Z</time>
      </trkpt>
      <trkpt lat="44.84005" lon="4.68415">
        <ele>475.03</ele>
        <time>2022-04-28T09:47:33Z</time>
      </trkpt>
      <trkpt lat="44.83988" lon="4.68419">
        <ele>472.63</ele>
        <time>2022-04-28T09:47:49Z</time>
      </trkpt>
      <trkpt lat="44.83981" lon="4.68387">
        <ele>473.11</ele>
        <time>2022-04-28T09:48:08Z</time>
      </trkpt>
      <trkpt lat="44.83984" lon="4.68356">
        <ele>472.63</ele>
        <time>2022-04-28T09:48:24Z</time>
      </trkpt>
      <trkpt lat="44.83988" lon="4.6832">
        <ele>472.14</ele>
        <time>2022-04-28T09:48:42Z</time>
      </trkpt>
      <trkpt lat="44.83994" lon="4.68275">
        <ele>465.9</ele>
        <time>2022-04-28T09:49:02Z</time>
      </trkpt>
      <trkpt lat="44.84004" lon="4.68257">
        <ele>463.49</ele>
        <time>2022-04-28T09:49:15Z</time>
      </trkpt>
      <trkpt lat="44.84006" lon="4.68255">
        <ele>465.9</ele>
        <time>2022-04-28T09:49:26Z</time>
      </trkpt>
      <trkpt lat="44.84009" lon="4.68251">
        <ele>465.42</ele>
        <time>2022-04-28T09:49:40Z</time>
      </trkpt>
      <trkpt lat="44.8401" lon="4.68254">
        <ele>467.82</ele>
        <time>2022-04-28T09:49:57Z</time>
      </trkpt>
      <trkpt lat="44.84008" lon="4.68255">
        <ele>467.34</ele>
        <time>2022-04-28T09:50:12Z</time>
      </trkpt>
      <trkpt lat="44.84001" lon="4.6826">
        <ele>466.38</ele>
        <time>2022-04-28T09:50:24Z</time>
      </trkpt>
      <trkpt lat="44.84" lon="4.68266">
        <ele>463.49</ele>
        <time>2022-04-28T09:50:32Z</time>
      </trkpt>
      <trkpt lat="44.83998" lon="4.68265">
        <ele>462.05</ele>
        <time>2022-04-28T09:50:35Z</time>
      </trkpt>
      <trkpt lat="44.83995" lon="4.68253">
        <ele>459.65</ele>
        <time>2022-04-28T09:50:43Z</time>
      </trkpt>
      <trkpt lat="44.83994" lon="4.68239">
        <ele>456.76</ele>
        <time>2022-04-28T09:50:54Z</time>
      </trkpt>
      <trkpt lat="44.83993" lon="4.68236">
        <ele>456.76</ele>
        <time>2022-04-28T09:50:56Z</time>
      </trkpt>
      <trkpt lat="44.83991" lon="4.68228">
        <ele>457.24</ele>
        <time>2022-04-28T09:51:02Z</time>
      </trkpt>
      <trkpt lat="44.83989" lon="4.68224">
        <ele>456.76</ele>
        <time>2022-04-28T09:51:05Z</time>
      </trkpt>
      <trkpt lat="44.83987" lon="4.68219">
        <ele>456.28</ele>
        <time>2022-04-28T09:51:08Z</time>
      </trkpt>
      <trkpt lat="44.83985" lon="4.68204">
        <ele>455.32</ele>
        <time>2022-04-28T09:51:16Z</time>
      </trkpt>
      <trkpt lat="44.83974" lon="4.68188">
        <ele>456.28</ele>
        <time>2022-04-28T09:51:28Z</time>
      </trkpt>
      <trkpt lat="44.83971" lon="4.6818">
        <ele>457.24</ele>
        <time>2022-04-28T09:51:33Z</time>
      </trkpt>
      <trkpt lat="44.83968" lon="4.68169">
        <ele>457.72</ele>
        <time>2022-04-28T09:51:39Z</time>
      </trkpt>
      <trkpt lat="44.83963" lon="4.68144">
        <ele>461.09</ele>
        <time>2022-04-28T09:51:54Z</time>
      </trkpt>
      <trkpt lat="44.83975" lon="4.68122">
        <ele>458.69</ele>
        <time>2022-04-28T09:52:09Z</time>
      </trkpt>
      <trkpt lat="44.8398" lon="4.68114">
        <ele>456.28</ele>
        <time>2022-04-28T09:52:15Z</time>
      </trkpt>
      <trkpt lat="44.83987" lon="4.68111">
        <ele>455.8</ele>
        <time>2022-04-28T09:52:19Z</time>
      </trkpt>
      <trkpt lat="44.8399" lon="4.68108">
        <ele>455.32</ele>
        <time>2022-04-28T09:52:21Z</time>
      </trkpt>
      <trkpt lat="44.83992" lon="4.68103">
        <ele>455.8</ele>
        <time>2022-04-28T09:52:25Z</time>
      </trkpt>
      <trkpt lat="44.83991" lon="4.68103">
        <ele>455.8</ele>
        <time>2022-04-28T09:52:27Z</time>
      </trkpt>
      <trkpt lat="44.83981" lon="4.68094">
        <ele>457.72</ele>
        <time>2022-04-28T09:52:41Z</time>
      </trkpt>
      <trkpt lat="44.83968" lon="4.68085">
        <ele>454.84</ele>
        <time>2022-04-28T09:52:55Z</time>
      </trkpt>
      <trkpt lat="44.83952" lon="4.68077">
        <ele>452.92</ele>
        <time>2022-04-28T09:53:10Z</time>
      </trkpt>
      <trkpt lat="44.83932" lon="4.68075">
        <ele>449.55</ele>
        <time>2022-04-28T09:53:24Z</time>
      </trkpt>
      <trkpt lat="44.83912" lon="4.68067">
        <ele>443.79</ele>
        <time>2022-04-28T09:53:40Z</time>
      </trkpt>
      <trkpt lat="44.83909" lon="4.68061">
        <ele>441.38</ele>
        <time>2022-04-28T09:53:44Z</time>
      </trkpt>
      <trkpt lat="44.8391" lon="4.68039">
        <ele>438.98</ele>
        <time>2022-04-28T09:53:58Z</time>
      </trkpt>
      <trkpt lat="44.83912" lon="4.68018">
        <ele>436.58</ele>
        <time>2022-04-28T09:54:13Z</time>
      </trkpt>
      <trkpt lat="44.83913" lon="4.68005">
        <ele>436.58</ele>
        <time>2022-04-28T09:54:23Z</time>
      </trkpt>
      <trkpt lat="44.83915" lon="4.67998">
        <ele>435.13</ele>
        <time>2022-04-28T09:54:27Z</time>
      </trkpt>
      <trkpt lat="44.83913" lon="4.67982">
        <ele>433.21</ele>
        <time>2022-04-28T09:54:36Z</time>
      </trkpt>
      <trkpt lat="44.83912" lon="4.67974">
        <ele>432.73</ele>
        <time>2022-04-28T09:54:40Z</time>
      </trkpt>
      <trkpt lat="44.83898" lon="4.67959">
        <ele>429.85</ele>
        <time>2022-04-28T09:54:57Z</time>
      </trkpt>
      <trkpt lat="44.83896" lon="4.67956">
        <ele>429.37</ele>
        <time>2022-04-28T09:55:01Z</time>
      </trkpt>
      <trkpt lat="44.83885" lon="4.67946">
        <ele>427.44</ele>
        <time>2022-04-28T09:55:15Z</time>
      </trkpt>
      <trkpt lat="44.83885" lon="4.6794">
        <ele>425.52</ele>
        <time>2022-04-28T09:55:21Z</time>
      </trkpt>
      <trkpt lat="44.83891" lon="4.6792">
        <ele>420.23</ele>
        <time>2022-04-28T09:55:34Z</time>
      </trkpt>
      <trkpt lat="44.83903" lon="4.679">
        <ele>416.39</ele>
        <time>2022-04-28T09:55:48Z</time>
      </trkpt>
      <trkpt lat="44.83913" lon="4.67889">
        <ele>416.87</ele>
        <time>2022-04-28T09:56:00Z</time>
      </trkpt>
      <trkpt lat="44.83916" lon="4.67884">
        <ele>417.83</ele>
        <time>2022-04-28T09:56:03Z</time>
      </trkpt>
      <trkpt lat="44.8392" lon="4.67879">
        <ele>418.79</ele>
        <time>2022-04-28T09:56:08Z</time>
      </trkpt>
      <trkpt lat="44.8392" lon="4.67871">
        <ele>422.16</ele>
        <time>2022-04-28T09:56:15Z</time>
      </trkpt>
      <trkpt lat="44.83917" lon="4.67867">
        <ele>422.64</ele>
        <time>2022-04-28T09:56:18Z</time>
      </trkpt>
      <trkpt lat="44.839" lon="4.67866">
        <ele>421.68</ele>
        <time>2022-04-28T09:56:31Z</time>
      </trkpt>
      <trkpt lat="44.83885" lon="4.67867">
        <ele>420.71</ele>
        <time>2022-04-28T09:56:45Z</time>
      </trkpt>
      <trkpt lat="44.8388" lon="4.67865">
        <ele>420.23</ele>
        <time>2022-04-28T09:56:49Z</time>
      </trkpt>
      <trkpt lat="44.83869" lon="4.67867">
        <ele>418.31</ele>
        <time>2022-04-28T09:56:58Z</time>
      </trkpt>
      <trkpt lat="44.83853" lon="4.67867">
        <ele>415.43</ele>
        <time>2022-04-28T09:57:13Z</time>
      </trkpt>
      <trkpt lat="44.83838" lon="4.6787">
        <ele>415.43</ele>
        <time>2022-04-28T09:57:26Z</time>
      </trkpt>
      <trkpt lat="44.83822" lon="4.67872">
        <ele>412.54</ele>
        <time>2022-04-28T09:57:39Z</time>
      </trkpt>
      <trkpt lat="44.83819" lon="4.67872">
        <ele>412.06</ele>
        <time>2022-04-28T09:57:41Z</time>
      </trkpt>
      <trkpt lat="44.83805" lon="4.67874">
        <ele>409.18</ele>
        <time>2022-04-28T09:57:52Z</time>
      </trkpt>
      <trkpt lat="44.83785" lon="4.67881">
        <ele>405.33</ele>
        <time>2022-04-28T09:58:05Z</time>
      </trkpt>
      <trkpt lat="44.83767" lon="4.67883">
        <ele>400.05</ele>
        <time>2022-04-28T09:58:18Z</time>
      </trkpt>
      <trkpt lat="44.83748" lon="4.67886">
        <ele>398.6</ele>
        <time>2022-04-28T09:58:33Z</time>
      </trkpt>
      <trkpt lat="44.83743" lon="4.67885">
        <ele>399.08</ele>
        <time>2022-04-28T09:58:37Z</time>
      </trkpt>
      <trkpt lat="44.83726" lon="4.67881">
        <ele>396.68</ele>
        <time>2022-04-28T09:58:48Z</time>
      </trkpt>
      <trkpt lat="44.83722" lon="4.67878">
        <ele>396.2</ele>
        <time>2022-04-28T09:58:52Z</time>
      </trkpt>
      <trkpt lat="44.83715" lon="4.67877">
        <ele>395.72</ele>
        <time>2022-04-28T09:58:58Z</time>
      </trkpt>
      <trkpt lat="44.83705" lon="4.67874">
        <ele>394.28</ele>
        <time>2022-04-28T09:59:05Z</time>
      </trkpt>
      <trkpt lat="44.83686" lon="4.67871">
        <ele>394.28</ele>
        <time>2022-04-28T09:59:20Z</time>
      </trkpt>
      <trkpt lat="44.83683" lon="4.67875">
        <ele>392.84</ele>
        <time>2022-04-28T09:59:25Z</time>
      </trkpt>
      <trkpt lat="44.83666" lon="4.67879">
        <ele>391.39</ele>
        <time>2022-04-28T09:59:39Z</time>
      </trkpt>
      <trkpt lat="44.83647" lon="4.67882">
        <ele>389.95</ele>
        <time>2022-04-28T09:59:52Z</time>
      </trkpt>
      <trkpt lat="44.83629" lon="4.67884">
        <ele>387.07</ele>
        <time>2022-04-28T10:00:04Z</time>
      </trkpt>
      <trkpt lat="44.83626" lon="4.67883">
        <ele>386.11</ele>
        <time>2022-04-28T10:00:06Z</time>
      </trkpt>
      <trkpt lat="44.83618" lon="4.67884">
        <ele>383.22</ele>
        <time>2022-04-28T10:00:11Z</time>
      </trkpt>
      <trkpt lat="44.8361" lon="4.67883">
        <ele>381.78</ele>
        <time>2022-04-28T10:00:15Z</time>
      </trkpt>
      <trkpt lat="44.83591" lon="4.67875">
        <ele>376.01</ele>
        <time>2022-04-28T10:00:30Z</time>
      </trkpt>
      <trkpt lat="44.83576" lon="4.67869">
        <ele>372.17</ele>
        <time>2022-04-28T10:00:43Z</time>
      </trkpt>
      <trkpt lat="44.83562" lon="4.67867">
        <ele>371.21</ele>
        <time>2022-04-28T10:00:56Z</time>
      </trkpt>
      <trkpt lat="44.83553" lon="4.67867">
        <ele>372.17</ele>
        <time>2022-04-28T10:01:04Z</time>
      </trkpt>
      <trkpt lat="44.83537" lon="4.67876">
        <ele>374.57</ele>
        <time>2022-04-28T10:01:17Z</time>
      </trkpt>
      <trkpt lat="44.83534" lon="4.67876">
        <ele>373.13</ele>
        <time>2022-04-28T10:01:20Z</time>
      </trkpt>
      <trkpt lat="44.83521" lon="4.67887">
        <ele>370.24</ele>
        <time>2022-04-28T10:01:31Z</time>
      </trkpt>
      <trkpt lat="44.83517" lon="4.67891">
        <ele>369.28</ele>
        <time>2022-04-28T10:01:35Z</time>
      </trkpt>
      <trkpt lat="44.83501" lon="4.67905">
        <ele>363.52</ele>
        <time>2022-04-28T10:01:47Z</time>
      </trkpt>
      <trkpt lat="44.83491" lon="4.67918">
        <ele>361.59</ele>
        <time>2022-04-28T10:01:56Z</time>
      </trkpt>
      <trkpt lat="44.83476" lon="4.67929">
        <ele>358.23</ele>
        <time>2022-04-28T10:02:09Z</time>
      </trkpt>
      <trkpt lat="44.83467" lon="4.67937">
        <ele>355.34</ele>
        <time>2022-04-28T10:02:20Z</time>
      </trkpt>
      <trkpt lat="44.83462" lon="4.67941">
        <ele>352.46</ele>
        <time>2022-04-28T10:02:24Z</time>
      </trkpt>
      <trkpt lat="44.83455" lon="4.67946">
        <ele>343.81</ele>
        <time>2022-04-28T10:02:29Z</time>
      </trkpt>
      <trkpt lat="44.83454" lon="4.67946">
        <ele>342.37</ele>
        <time>2022-04-28T10:02:31Z</time>
      </trkpt>
      <trkpt lat="44.83447" lon="4.67944">
        <ele>338.04</ele>
        <time>2022-04-28T10:02:45Z</time>
      </trkpt>
      <trkpt lat="44.83445" lon="4.67936">
        <ele>333.71</ele>
        <time>2022-04-28T10:02:59Z</time>
      </trkpt>
      <trkpt lat="44.83445" lon="4.67916">
        <ele>322.66</ele>
        <time>2022-04-28T10:03:13Z</time>
      </trkpt>
      <trkpt lat="44.83459" lon="4.67892">
        <ele>318.81</ele>
        <time>2022-04-28T10:03:27Z</time>
      </trkpt>
      <trkpt lat="44.83468" lon="4.67867">
        <ele>317.85</ele>
        <time>2022-04-28T10:03:44Z</time>
      </trkpt>
      <trkpt lat="44.83468" lon="4.67867">
        <ele>317.85</ele>
        <time>2022-04-28T10:03:45Z</time>
      </trkpt>
      <trkpt lat="44.83465" lon="4.67861">
        <ele>317.37</ele>
        <time>2022-04-28T10:03:51Z</time>
      </trkpt>
      <trkpt lat="44.83462" lon="4.67854">
        <ele>316.41</ele>
        <time>2022-04-28T10:03:58Z</time>
      </trkpt>
      <trkpt lat="44.83461" lon="4.67851">
        <ele>316.41</ele>
        <time>2022-04-28T10:04:00Z</time>
      </trkpt>
      <trkpt lat="44.83461" lon="4.67835">
        <ele>314.97</ele>
        <time>2022-04-28T10:04:10Z</time>
      </trkpt>
      <trkpt lat="44.83459" lon="4.6783">
        <ele>314.97</ele>
        <time>2022-04-28T10:04:14Z</time>
      </trkpt>
      <trkpt lat="44.83459" lon="4.67824">
        <ele>315.45</ele>
        <time>2022-04-28T10:04:18Z</time>
      </trkpt>
      <trkpt lat="44.83458" lon="4.67817">
        <ele>314.97</ele>
        <time>2022-04-28T10:04:22Z</time>
      </trkpt>
      <trkpt lat="44.83458" lon="4.67809">
        <ele>314.97</ele>
        <time>2022-04-28T10:04:26Z</time>
      </trkpt>
      <trkpt lat="44.83467" lon="4.67785">
        <ele>313.05</ele>
        <time>2022-04-28T10:04:39Z</time>
      </trkpt>
      <trkpt lat="44.83467" lon="4.67783">
        <ele>313.05</ele>
        <time>2022-04-28T10:04:40Z</time>
      </trkpt>
      <trkpt lat="44.83465" lon="4.67775">
        <ele>312.09</ele>
        <time>2022-04-28T10:04:45Z</time>
      </trkpt>
      <trkpt lat="44.83462" lon="4.67769">
        <ele>312.09</ele>
        <time>2022-04-28T10:04:49Z</time>
      </trkpt>
      <trkpt lat="44.83467" lon="4.67743">
        <ele>312.57</ele>
        <time>2022-04-28T10:05:03Z</time>
      </trkpt>
      <trkpt lat="44.83469" lon="4.67726">
        <ele>312.09</ele>
        <time>2022-04-28T10:05:13Z</time>
      </trkpt>
      <trkpt lat="44.8347" lon="4.67711">
        <ele>310.16</ele>
        <time>2022-04-28T10:05:22Z</time>
      </trkpt>
      <trkpt lat="44.83463" lon="4.67698">
        <ele>307.28</ele>
        <time>2022-04-28T10:05:36Z</time>
      </trkpt>
      <trkpt lat="44.83457" lon="4.67689">
        <ele>304.39</ele>
        <time>2022-04-28T10:05:50Z</time>
      </trkpt>
      <trkpt lat="44.83452" lon="4.67684">
        <ele>301.51</ele>
        <time>2022-04-28T10:05:58Z</time>
      </trkpt>
      <trkpt lat="44.83451" lon="4.67679">
        <ele>296.22</ele>
        <time>2022-04-28T10:06:05Z</time>
      </trkpt>
      <trkpt lat="44.83442" lon="4.67666">
        <ele>289.97</ele>
        <time>2022-04-28T10:06:18Z</time>
      </trkpt>
      <trkpt lat="44.83433" lon="4.67659">
        <ele>285.17</ele>
        <time>2022-04-28T10:06:29Z</time>
      </trkpt>
      <trkpt lat="44.83428" lon="4.67661">
        <ele>281.8</ele>
        <time>2022-04-28T10:06:38Z</time>
      </trkpt>
      <trkpt lat="44.83419" lon="4.67668">
        <ele>280.36</ele>
        <time>2022-04-28T10:06:54Z</time>
      </trkpt>
      <trkpt lat="44.83407" lon="4.67672">
        <ele>277.96</ele>
        <time>2022-04-28T10:07:06Z</time>
      </trkpt>
      <trkpt lat="44.83404" lon="4.67671">
        <ele>277.48</ele>
        <time>2022-04-28T10:07:07Z</time>
      </trkpt>
      <trkpt lat="44.83378" lon="4.67673">
        <ele>262.58</ele>
        <time>2022-04-28T10:07:21Z</time>
      </trkpt>
      <trkpt lat="44.83369" lon="4.67667">
        <ele>257.29</ele>
        <time>2022-04-28T10:07:33Z</time>
      </trkpt>
      <trkpt lat="44.83365" lon="4.6766">
        <ele>252.96</ele>
        <time>2022-04-28T10:07:48Z</time>
      </trkpt>
      <trkpt lat="44.83354" lon="4.67651">
        <ele>249.6</ele>
        <time>2022-04-28T10:08:02Z</time>
      </trkpt>
      <trkpt lat="44.83348" lon="4.67639">
        <ele>249.12</ele>
        <time>2022-04-28T10:08:15Z</time>
      </trkpt>
      <trkpt lat="44.83338" lon="4.67627">
        <ele>248.16</ele>
        <time>2022-04-28T10:08:29Z</time>
      </trkpt>
      <trkpt lat="44.83336" lon="4.6762">
        <ele>246.23</ele>
        <time>2022-04-28T10:08:42Z</time>
      </trkpt>
      <trkpt lat="44.8333" lon="4.67616">
        <ele>243.35</ele>
        <time>2022-04-28T10:08:54Z</time>
      </trkpt>
      <trkpt lat="44.83332" lon="4.67615">
        <ele>239.99</ele>
        <time>2022-04-28T10:09:00Z</time>
      </trkpt>
      <trkpt lat="44.83331" lon="4.67616">
        <ele>237.1</ele>
        <time>2022-04-28T10:09:03Z</time>
      </trkpt>
      <trkpt lat="44.83323" lon="4.67608">
        <ele>232.3</ele>
        <time>2022-04-28T10:09:15Z</time>
      </trkpt>
      <trkpt lat="44.83323" lon="4.67607">
        <ele>231.81</ele>
        <time>2022-04-28T10:09:16Z</time>
      </trkpt>
      <trkpt lat="44.8332" lon="4.67596">
        <ele>229.41</ele>
        <time>2022-04-28T10:09:30Z</time>
      </trkpt>
      <trkpt lat="44.83315" lon="4.67587">
        <ele>225.09</ele>
        <time>2022-04-28T10:09:40Z</time>
      </trkpt>
      <trkpt lat="44.83313" lon="4.67573">
        <ele>224.12</ele>
        <time>2022-04-28T10:09:54Z</time>
      </trkpt>
      <trkpt lat="44.83308" lon="4.67568">
        <ele>222.2</ele>
        <time>2022-04-28T10:10:05Z</time>
      </trkpt>
      <trkpt lat="44.83303" lon="4.67566">
        <ele>218.36</ele>
        <time>2022-04-28T10:10:20Z</time>
      </trkpt>
      <trkpt lat="44.83299" lon="4.67562">
        <ele>204.42</ele>
        <time>2022-04-28T10:10:34Z</time>
      </trkpt>
      <trkpt lat="44.83297" lon="4.67555">
        <ele>201.53</ele>
        <time>2022-04-28T10:10:44Z</time>
      </trkpt>
      <trkpt lat="44.83294" lon="4.67546">
        <ele>201.53</ele>
        <time>2022-04-28T10:10:57Z</time>
      </trkpt>
      <trkpt lat="44.83291" lon="4.67545">
        <ele>200.57</ele>
        <time>2022-04-28T10:11:09Z</time>
      </trkpt>
      <trkpt lat="44.83279" lon="4.67545">
        <ele>192.88</ele>
        <time>2022-04-28T10:11:25Z</time>
      </trkpt>
      <trkpt lat="44.8327" lon="4.67549">
        <ele>186.63</ele>
        <time>2022-04-28T10:11:40Z</time>
      </trkpt>
      <trkpt lat="44.83265" lon="4.67553">
        <ele>182.79</ele>
        <time>2022-04-28T10:11:50Z</time>
      </trkpt>
      <trkpt lat="44.83259" lon="4.67555">
        <ele>183.27</ele>
        <time>2022-04-28T10:12:03Z</time>
      </trkpt>
      <trkpt lat="44.8325" lon="4.67551">
        <ele>180.87</ele>
        <time>2022-04-28T10:12:15Z</time>
      </trkpt>
      <trkpt lat="44.83245" lon="4.6755">
        <ele>179.42</ele>
        <time>2022-04-28T10:12:20Z</time>
      </trkpt>
      <trkpt lat="44.83241" lon="4.6755">
        <ele>178.46</ele>
        <time>2022-04-28T10:12:24Z</time>
      </trkpt>
      <trkpt lat="44.83236" lon="4.67551">
        <ele>178.46</ele>
        <time>2022-04-28T10:12:28Z</time>
      </trkpt>
      <trkpt lat="44.8322" lon="4.67543">
        <ele>179.9</ele>
        <time>2022-04-28T10:12:42Z</time>
      </trkpt>
      <trkpt lat="44.83211" lon="4.67532">
        <ele>183.27</ele>
        <time>2022-04-28T10:12:56Z</time>
      </trkpt>
      <trkpt lat="44.83208" lon="4.67525">
        <ele>189.52</ele>
        <time>2022-04-28T10:13:12Z</time>
      </trkpt>
      <trkpt lat="44.83209" lon="4.67524">
        <ele>193.84</ele>
        <time>2022-04-28T10:13:28Z</time>
      </trkpt>
      <trkpt lat="44.83208" lon="4.67526">
        <ele>197.69</ele>
        <time>2022-04-28T10:13:39Z</time>
      </trkpt>
      <trkpt lat="44.83204" lon="4.67535">
        <ele>198.17</ele>
        <time>2022-04-28T10:13:52Z</time>
      </trkpt>
      <trkpt lat="44.83197" lon="4.67542">
        <ele>199.61</ele>
        <time>2022-04-28T10:14:03Z</time>
      </trkpt>
      <trkpt lat="44.83195" lon="4.67546">
        <ele>200.57</ele>
        <time>2022-04-28T10:14:09Z</time>
      </trkpt>
      <trkpt lat="44.83181" lon="4.67549">
        <ele>202.49</ele>
        <time>2022-04-28T10:14:24Z</time>
      </trkpt>
      <trkpt lat="44.83175" lon="4.67554">
        <ele>200.57</ele>
        <time>2022-04-28T10:14:37Z</time>
      </trkpt>
      <trkpt lat="44.8317" lon="4.67561">
        <ele>202.49</ele>
        <time>2022-04-28T10:14:49Z</time>
      </trkpt>
      <trkpt lat="44.8316" lon="4.6757">
        <ele>204.9</ele>
        <time>2022-04-28T10:15:01Z</time>
      </trkpt>
      <trkpt lat="44.83154" lon="4.67584">
        <ele>203.94</ele>
        <time>2022-04-28T10:15:14Z</time>
      </trkpt>
      <trkpt lat="44.83148" lon="4.67588">
        <ele>202.01</ele>
        <time>2022-04-28T10:15:24Z</time>
      </trkpt>
      <trkpt lat="44.83149" lon="4.67584">
        <ele>198.65</ele>
        <time>2022-04-28T10:15:31Z</time>
      </trkpt>
      <trkpt lat="44.83149" lon="4.67575">
        <ele>196.73</ele>
        <time>2022-04-28T10:15:43Z</time>
      </trkpt>
      <trkpt lat="44.83147" lon="4.67569">
        <ele>196.73</ele>
        <time>2022-04-28T10:15:54Z</time>
      </trkpt>
      <trkpt lat="44.83122" lon="4.67571">
        <ele>191.44</ele>
        <time>2022-04-28T10:16:10Z</time>
      </trkpt>
      <trkpt lat="44.83113" lon="4.67562">
        <ele>187.11</ele>
        <time>2022-04-28T10:16:26Z</time>
      </trkpt>
      <trkpt lat="44.83094" lon="4.67564">
        <ele>183.75</ele>
        <time>2022-04-28T10:16:41Z</time>
      </trkpt>
      <trkpt lat="44.83078" lon="4.67574">
        <ele>186.15</ele>
        <time>2022-04-28T10:16:55Z</time>
      </trkpt>
      <trkpt lat="44.83058" lon="4.67576">
        <ele>186.15</ele>
        <time>2022-04-28T10:17:09Z</time>
      </trkpt>
      <trkpt lat="44.83044" lon="4.6758">
        <ele>186.15</ele>
        <time>2022-04-28T10:17:20Z</time>
      </trkpt>
      <trkpt lat="44.83028" lon="4.67583">
        <ele>184.71</ele>
        <time>2022-04-28T10:17:31Z</time>
      </trkpt>
      <trkpt lat="44.83006" lon="4.67584">
        <ele>183.27</ele>
        <time>2022-04-28T10:17:47Z</time>
      </trkpt>
      <trkpt lat="44.8298" lon="4.6759">
        <ele>178.94</ele>
        <time>2022-04-28T10:18:01Z</time>
      </trkpt>
      <trkpt lat="44.82966" lon="4.67595">
        <ele>178.46</ele>
        <time>2022-04-28T10:18:15Z</time>
      </trkpt>
      <trkpt lat="44.82937" lon="4.67603">
        <ele>175.1</ele>
        <time>2022-04-28T10:18:30Z</time>
      </trkpt>
      <trkpt lat="44.82921" lon="4.67607">
        <ele>175.58</ele>
        <time>2022-04-28T10:18:40Z</time>
      </trkpt>
      <trkpt lat="44.8291" lon="4.67613">
        <ele>170.77</ele>
        <time>2022-04-28T10:18:52Z</time>
      </trkpt>
      <trkpt lat="44.82909" lon="4.67607">
        <ele>171.25</ele>
        <time>2022-04-28T10:19:10Z</time>
      </trkpt>
      <trkpt lat="44.82903" lon="4.67603">
        <ele>170.77</ele>
        <time>2022-04-28T10:19:18Z</time>
      </trkpt>
      <trkpt lat="44.82885" lon="4.67603">
        <ele>169.81</ele>
        <time>2022-04-28T10:19:38Z</time>
      </trkpt>
      <trkpt lat="44.82902" lon="4.67605">
        <ele>168.85</ele>
        <time>2022-04-28T10:20:04Z</time>
      </trkpt>
      <trkpt lat="44.82901" lon="4.67605">
        <ele>168.37</ele>
        <time>2022-04-28T10:20:09Z</time>
      </trkpt>
      <trkpt lat="44.82867" lon="4.67604">
        <ele>168.85</ele>
        <time>2022-04-28T10:20:19Z</time>
      </trkpt>
      <trkpt lat="44.82875" lon="4.67579">
        <ele>168.37</ele>
        <time>2022-04-28T10:25:29Z</time>
      </trkpt>
      <trkpt lat="44.8287" lon="4.67591">
        <ele>164.52</ele>
        <time>2022-04-28T10:25:53Z</time>
      </trkpt>
      <trkpt lat="44.82854" lon="4.67584">
        <ele>162.6</ele>
        <time>2022-04-28T10:26:15Z</time>
      </trkpt>
      <trkpt lat="44.82846" lon="4.67581">
        <ele>162.6</ele>
        <time>2022-04-28T10:26:23Z</time>
      </trkpt>
      <trkpt lat="44.82893" lon="4.67611">
        <ele>156.83</ele>
        <time>2022-04-28T10:30:01Z</time>
      </trkpt>
      <trkpt lat="44.82904" lon="4.67611">
        <ele>155.87</ele>
        <time>2022-04-28T10:30:08Z</time>
      </trkpt>
      <trkpt lat="44.82884" lon="4.67628">
        <ele>158.75</ele>
        <time>2022-04-28T10:30:24Z</time>
      </trkpt>
      <trkpt lat="44.8288" lon="4.67632">
        <ele>159.24</ele>
        <time>2022-04-28T10:30:36Z</time>
      </trkpt>
      <trkpt lat="44.8286" lon="4.6764">
        <ele>155.39</ele>
        <time>2022-04-28T10:30:50Z</time>
      </trkpt>
      <trkpt lat="44.82841" lon="4.67647">
        <ele>155.39</ele>
        <time>2022-04-28T10:31:03Z</time>
      </trkpt>
      <trkpt lat="44.82822" lon="4.67662">
        <ele>154.91</ele>
        <time>2022-04-28T10:31:18Z</time>
      </trkpt>
      <trkpt lat="44.82807" lon="4.67667">
        <ele>157.31</ele>
        <time>2022-04-28T10:31:30Z</time>
      </trkpt>
      <trkpt lat="44.82784" lon="4.67679">
        <ele>161.16</ele>
        <time>2022-04-28T10:31:45Z</time>
      </trkpt>
      <trkpt lat="44.8276" lon="4.67688">
        <ele>161.16</ele>
        <time>2022-04-28T10:32:02Z</time>
      </trkpt>
      <trkpt lat="44.82739" lon="4.67703">
        <ele>162.12</ele>
        <time>2022-04-28T10:32:18Z</time>
      </trkpt>
      <trkpt lat="44.8272" lon="4.67712">
        <ele>164.04</ele>
        <time>2022-04-28T10:32:33Z</time>
      </trkpt>
      <trkpt lat="44.82704" lon="4.67724">
        <ele>162.6</ele>
        <time>2022-04-28T10:32:48Z</time>
      </trkpt>
      <trkpt lat="44.82681" lon="4.67735">
        <ele>159.72</ele>
        <time>2022-04-28T10:33:05Z</time>
      </trkpt>
      <trkpt lat="44.82656" lon="4.6775">
        <ele>157.31</ele>
        <time>2022-04-28T10:33:25Z</time>
      </trkpt>
      <trkpt lat="44.82635" lon="4.67763">
        <ele>154.43</ele>
        <time>2022-04-28T10:33:41Z</time>
      </trkpt>
      <trkpt lat="44.8263" lon="4.67793">
        <ele>153.47</ele>
        <time>2022-04-28T10:33:57Z</time>
      </trkpt>
      <trkpt lat="44.82628" lon="4.67835">
        <ele>153.95</ele>
        <time>2022-04-28T10:34:18Z</time>
      </trkpt>
      <trkpt lat="44.82628" lon="4.67866">
        <ele>154.43</ele>
        <time>2022-04-28T10:34:34Z</time>
      </trkpt>
      <trkpt lat="44.82627" lon="4.67898">
        <ele>154.43</ele>
        <time>2022-04-28T10:34:50Z</time>
      </trkpt>
      <trkpt lat="44.82635" lon="4.67934">
        <ele>154.43</ele>
        <time>2022-04-28T10:35:09Z</time>
      </trkpt>
      <trkpt lat="44.82636" lon="4.67964">
        <ele>155.87</ele>
        <time>2022-04-28T10:35:26Z</time>
      </trkpt>
      <trkpt lat="44.82636" lon="4.67975">
        <ele>155.39</ele>
        <time>2022-04-28T10:35:32Z</time>
      </trkpt>
      <trkpt lat="44.82639" lon="4.67988">
        <ele>155.39</ele>
        <time>2022-04-28T10:35:40Z</time>
      </trkpt>
      <trkpt lat="44.82638" lon="4.67994">
        <ele>155.87</ele>
        <time>2022-04-28T10:35:44Z</time>
      </trkpt>
      <trkpt lat="44.82636" lon="4.68007">
        <ele>157.31</ele>
        <time>2022-04-28T10:35:52Z</time>
      </trkpt>
      <trkpt lat="44.82643" lon="4.68035">
        <ele>160.2</ele>
        <time>2022-04-28T10:36:08Z</time>
      </trkpt>
      <trkpt lat="44.82642" lon="4.68042">
        <ele>160.68</ele>
        <time>2022-04-28T10:36:16Z</time>
      </trkpt>
      <trkpt lat="44.8264" lon="4.68045">
        <ele>161.16</ele>
        <time>2022-04-28T10:36:21Z</time>
      </trkpt>
      <trkpt lat="44.82623" lon="4.68028">
        <ele>158.27</ele>
        <time>2022-04-28T10:36:37Z</time>
      </trkpt>
      <trkpt lat="44.82621" lon="4.68026">
        <ele>157.79</ele>
        <time>2022-04-28T10:36:40Z</time>
      </trkpt>
      <trkpt lat="44.82619" lon="4.68021">
        <ele>157.31</ele>
        <time>2022-04-28T10:36:54Z</time>
      </trkpt>
      <trkpt lat="44.8262" lon="4.68023">
        <ele>157.79</ele>
        <time>2022-04-28T10:37:18Z</time>
      </trkpt>
      <trkpt lat="44.82619" lon="4.68025">
        <ele>158.75</ele>
        <time>2022-04-28T10:37:45Z</time>
      </trkpt>
      <trkpt lat="44.82615" lon="4.68023">
        <ele>157.31</ele>
        <time>2022-04-28T10:38:07Z</time>
      </trkpt>
      <trkpt lat="44.82617" lon="4.6802">
        <ele>155.87</ele>
        <time>2022-04-28T10:38:39Z</time>
      </trkpt>
      <trkpt lat="44.82617" lon="4.6802">
        <ele>154.43</ele>
        <time>2022-04-28T10:39:02Z</time>
      </trkpt>
    </trkseg>
  </trk>
</gpx>